Flight Track Log - Related Links

Times and Time Zones

All times are in EDT time to prevent confusion due to time zone crossing. See the AFL150 flight status page for this flight to view local times or setup timezone preferences in your user account.

Time Position Orientation Groundspeed Altitude Reporting Facility
EDT Latitude Longitude Course Direction KTS MPH feet Rate Location/Type
Tue 06:21:32 AM 55.9640 37.3610 256° West 189 217 1,200  Level FlightAware ADS-B
Tue 06:21:47 AM 55.9610 37.3370 257° West 185 213 1,900 2,229 Climbing FlightAware ADS-B
Tue 06:22:07 AM 55.9560 37.3080 253° West 186 214 2,500 1,867 Climbing FlightAware ADS-B
Tue 06:22:32 AM 55.9500 37.2700 254° West 189 217 3,300 1,733 Climbing FlightAware ADS-B
Tue 06:22:52 AM 55.9460 37.2400 257° West 194 223 3,800 1,200 Climbing FlightAware ADS-B
Tue 06:23:07 AM 55.9440 37.2140 262° West 210 242 4,000 686 Climbing FlightAware ADS-B
Tue 06:23:27 AM 55.9470 37.1780 278° West 232 267 4,200 900 Climbing FlightAware ADS-B
Tue 06:23:47 AM 55.9510 37.1380 280° West 255 293 4,600 1,600 Climbing FlightAware ADS-B
Tue 06:24:12 AM 55.9580 37.0850 283° West 271 312 5,400 2,267 Climbing FlightAware ADS-B
Tue 06:24:32 AM 55.9680 37.0440 294° West 273 314 6,300 2,700 Climbing FlightAware ADS-B
Tue 06:24:52 AM 55.9800 37.0030 298° West 273 314 7,200 2,550 Climbing FlightAware ADS-B
Tue 06:25:12 AM 55.9900 36.9620 294° West 277 319 8,000 2,400 Climbing FlightAware ADS-B
Tue 06:25:32 AM 56.0010 36.9220 296° West 282 325 8,800 2,400 Climbing FlightAware ADS-B
Tue 06:25:52 AM 56.0120 36.8780 294° West 286 329 9,600 1,964 Climbing FlightAware ADS-B
Tue 06:26:27 AM 56.0330 36.8020 296° West 303 349 10,600 1,280 Climbing FlightAware ADS-B
Tue 06:27:07 AM 56.0590 36.7050 296° West 343 395 11,200 1,029 Climbing FlightAware ADS-B
Tue 06:27:37 AM 56.0810 36.6240 296° West 368 423 11,800 1,754 Climbing FlightAware ADS-B
Tue 06:28:12 AM 56.1070 36.5260 295° West 376 433 13,100 2,143 Climbing FlightAware ADS-B
Tue 06:28:47 AM 56.1340 36.4270 296° West 384 442 14,300 2,000 Climbing FlightAware ADS-B
Tue 06:29:27 AM 56.1640 36.3130 295° West 392 451 15,600 2,000 Climbing FlightAware ADS-B
Tue 06:30:02 AM 56.1910 36.2110 295° West 397 457 16,800 1,846 Climbing FlightAware ADS-B
Tue 06:30:32 AM 56.2160 36.1170 296° West 405 466 17,600 1,754 Climbing FlightAware ADS-B
Tue 06:31:07 AM 56.2440 36.0110 295° West 412 474 18,700 1,840 Climbing FlightAware ADS-B
Tue 06:31:47 AM 56.2760 35.8860 295° West 418 481 19,900 1,680 Climbing FlightAware ADS-B
Tue 06:32:22 AM 56.3050 35.7740 295° West 425 489 20,800 1,569 Climbing FlightAware ADS-B
Tue 06:32:52 AM 56.3300 35.6780 295° West 430 495 21,600 1,714 Climbing FlightAware ADS-B
Tue 06:33:32 AM 56.3630 35.5480 295° West 430 495 22,800 1,714 Climbing FlightAware ADS-B
Tue 06:34:02 AM 56.3880 35.4510 295° West 433 498 23,600 1,292 Climbing FlightAware ADS-B
Tue 06:34:37 AM 56.4240 35.3400 300° West 441 507 24,200 1,114 Climbing FlightAware ADS-B
Tue 06:35:12 AM 56.4690 35.2380 309° West 448 516 24,900 1,371 Climbing FlightAware ADS-B
Tue 06:35:47 AM 56.5210 35.1480 316° Northwest 447 514 25,800 1,543 Climbing FlightAware ADS-B
Tue 06:36:22 AM 56.5770 35.0750 324° Northwest 444 511 26,700 1,371 Climbing FlightAware ADS-B
Tue 06:36:57 AM 56.6430 35.0120 332° Northwest 447 514 27,400 1,029 Climbing FlightAware ADS-B
Tue 06:37:32 AM 56.7120 34.9680 341° North 454 522 27,900 857 Climbing FlightAware ADS-B
Tue 06:38:07 AM 56.7840 34.9430 349° North 461 531 28,400 988 Climbing FlightAware ADS-B
Tue 06:38:57 AM 56.8920 34.9400 359° North 464 534 29,300 1,412 Climbing FlightAware ADS-B
Tue 06:39:32 AM 56.9650 34.9480 North 452 520 30,400 1,690 Climbing FlightAware ADS-B
Tue 06:40:08 AM 57.0370 34.9520 North 444 511 31,300 1,280 Climbing FlightAware ADS-B
Tue 06:40:47 AM 57.1200 34.9540 North 442 509 32,000 609 Climbing FlightAware ADS-B
Tue 06:41:17 AM 57.1800 34.9560 North 448 516 32,000 92 Level FlightAware ADS-B
Tue 06:41:52 AM 57.2540 34.9580 North 447 514 32,100 514 Climbing FlightAware ADS-B
Tue 06:42:27 AM 57.3250 34.9600 North 444 511 32,600 960 Climbing FlightAware ADS-B
Tue 06:43:07 AM 57.4030 34.9630 North 441 507 33,300 1,029 Climbing FlightAware ADS-B
Tue 06:43:37 AM 57.4670 34.9650 North 440 506 33,800 600 Climbing FlightAware ADS-B
Tue 06:44:17 AM 57.5470 34.9670 North 443 510 34,000 200 Climbing FlightAware ADS-B
Tue 06:44:37 AM 57.5890 34.9630 357° North 441 507 34,000  Level FlightAware ADS-B
Tue 06:45:12 AM 57.6590 34.9420 351° North 440 506 34,000  Level FlightAware ADS-B
Tue 06:45:42 AM 57.7180 34.9110 344° North 439 505 34,000  Level FlightAware ADS-B
Tue 06:46:17 AM 57.7840 34.8590 337° Northwest 437 503 34,000  Level FlightAware ADS-B
Tue 06:46:52 AM 57.8440 34.7930 330° Northwest 434 499 34,000  Level FlightAware ADS-B
Tue 06:47:27 AM 57.9010 34.7140 324° Northwest 432 497 34,000  Level FlightAware ADS-B
Tue 06:48:02 AM 57.9560 34.6370 323° Northwest 433 498 34,000  Level FlightAware ADS-B
Tue 06:48:42 AM 58.0200 34.5470 323° Northwest 433 498 34,000  Level FlightAware ADS-B
Tue 06:49:12 AM 58.0660 34.4830 324° Northwest 433 498 34,000  Level FlightAware ADS-B
Tue 06:49:47 AM 58.1230 34.4030 323° Northwest 433 498 34,000  Level FlightAware ADS-B
Tue 06:50:27 AM 58.1880 34.3090 323° Northwest 432 497 34,000  Level FlightAware ADS-B
Tue 06:51:02 AM 58.2420 34.2260 321° Northwest 432 497 34,000  Level FlightAware ADS-B
Tue 06:51:32 AM 58.2810 34.1650 321° Northwest 430 495 34,000  Level FlightAware ADS-B
Tue 06:52:07 AM 58.3390 34.0770 321° Northwest 428 493 34,000  Level FlightAware ADS-B
Tue 06:52:48 AM 58.3940 33.9920 321° Northwest 428 493 34,000  Level FlightAware ADS-B
Tue 06:53:36 AM 58.4570 33.8950 321° Northwest 428 493 34,000  Level FlightAware ADS-B
Tue 06:54:13 AM 58.5050 33.8200 321° Northwest 428 493 34,000  Level FlightAware ADS-B
Tue 06:54:49 AM 58.5520 33.7470 321° Northwest 428 493 34,000  Level FlightAware ADS-B
Tue 06:55:25 AM 58.5990 33.6730 321° Northwest 428 493 34,000  Level FlightAware ADS-B
Tue 06:56:02 AM 58.6480 33.5980 321° Northwest 428 493 34,000  Level FlightAware ADS-B
Tue 06:56:38 AM 58.6950 33.5250 321° Northwest 428 493 34,000  Level FlightAware ADS-B
Tue 06:57:14 AM 58.7420 33.4510 321° Northwest 428 493 34,000  Level FlightAware ADS-B
Tue 06:57:51 AM 58.7900 33.3760 321° Northwest 428 493 34,000  Level FlightAware ADS-B
Tue 06:58:27 AM 58.8370 33.3020 321° Northwest 428 493 34,000  Level FlightAware ADS-B
Tue 06:59:04 AM 58.8860 33.2260 321° Northwest 428 493 34,000  Level FlightAware ADS-B
Tue 06:59:40 AM 58.9330 33.1520 321° Northwest 428 493 34,000  Level FlightAware ADS-B
Tue 07:00:28 AM 59.0650 32.8210 308° West 426 490 34,000  Level FlightAware ADS-B
Tue 07:01:03 AM 59.1170 32.7180 315° West 426 490 34,000  Level FlightAware ADS-B
Tue 07:01:38 AM 59.1700 32.6120 314° West 426 490 34,000  Level FlightAware ADS-B
Tue 07:02:23 AM 59.2300 32.4930 315° West 426 490 34,000  Level FlightAware ADS-B
Tue 07:02:59 AM 59.2780 32.3960 314° West 426 490 34,000  Level FlightAware ADS-B
Tue 07:03:35 AM 59.3290 32.2930 314° West 427 491 34,000  Level FlightAware ADS-B
Tue 07:04:10 AM 59.3790 32.1920 314° West 427 491 34,000  Level FlightAware ADS-B
Tue 07:04:46 AM 59.4240 32.0890 311° West 422 486 34,000  Level FlightAware ADS-B
Tue 07:05:21 AM 59.4620 31.9760 304° West 417 480 34,000  Level FlightAware ADS-B
Tue 07:05:51 AM 59.4840 31.8900 297° West 414 476 34,000  Level FlightAware ADS-B
Tue 07:06:31 AM 59.5160 31.7420 293° West 413 475 34,000  Level FlightAware ADS-B
Tue 07:07:11 AM 59.5450 31.6120 294° West 412 474 34,000  Level FlightAware ADS-B
Tue 07:07:45 AM 59.5730 31.4850 294° West 412 474 34,000  Level FlightAware ADS-B
Tue 07:08:20 AM 59.5980 31.3660 293° West 410 472 34,000  Level FlightAware ADS-B
Tue 07:08:55 AM 59.6240 31.2460 293° West 409 471 34,000  Level FlightAware ADS-B
Tue 07:09:30 AM 59.6500 31.1220 293° West 408 470 34,000  Level FlightAware ADS-B
Tue 07:10:10 AM 59.6790 30.9870 293° West 408 470 34,000  Level FlightAware ADS-B
Tue 07:10:40 AM 59.7000 30.8850 292° West 408 470 34,000  Level FlightAware ADS-B
Tue 07:11:15 AM 59.7250 30.7650 292° West 409 471 34,000  Level FlightAware ADS-B
Tue 07:11:50 AM 59.7510 30.6400 292° West 410 472 34,000  Level FlightAware ADS-B
Tue 07:12:25 AM 59.7690 30.5210 287° West 407 468 34,000  Level FlightAware ADS-B
Tue 07:13:05 AM 59.7870 30.3700 283° West 404 465 34,000  Level FlightAware ADS-B
Tue 07:13:40 AM 59.7910 30.2430 274° West 402 463 34,000  Level FlightAware ADS-B
Tue 07:14:10 AM 59.7870 30.1320 266° West 402 463 34,000  Level FlightAware ADS-B
Tue 07:14:50 AM 59.7710 29.9880 258° West 403 464 34,000  Level FlightAware ADS-B
Tue 07:15:20 AM 59.7580 29.8820 256° West 404 465 34,000  Level FlightAware ADS-B
Tue 07:15:55 AM 59.7440 29.7650 257° West 403 464 34,000  Level FlightAware ADS-B
Tue 07:16:35 AM 59.7240 29.6150 255° West 402 463 34,000  Level FlightAware ADS-B
Tue 07:17:05 AM 59.7110 29.5140 256° West 404 465 34,000  Level FlightAware ADS-B
Tue 07:17:40 AM 59.6940 29.3820 256° West 404 465 34,000 480 Level FlightAware ADS-B
Tue 07:18:20 AM 59.6750 29.2390 255° West 403 464 34,600 1,029 Climbing FlightAware ADS-B
Tue 07:18:50 AM 59.6610 29.1320 256° West 398 458 35,200 1,015 Climbing FlightAware ADS-B
Tue 07:19:25 AM 59.6450 29.0100 256° West 396 456 35,700 686 Climbing FlightAware ADS-B
Tue 07:20:00 AM 59.6330 28.8890 259° West 398 458 36,000 247 Climbing FlightAware ADS-B
Tue 07:20:38 AM 59.6310 28.7500 268° West 399 459 36,000  Level FlightAware ADS-B
Tue 07:21:10 AM 59.6370 28.6340 276° West 401 461 36,000  Level FlightAware ADS-B
Tue 07:21:46 AM 59.6520 28.5050 283° West 404 465 36,000  Level FlightAware ADS-B
Tue 07:22:30 AM 59.6750 28.3500 286° West 403 464 36,000  Level FlightAware ADS-B
Tue 07:23:02 AM 59.6910 28.2390 286° West 403 464 36,000  Level FlightAware ADS-B
Tue 07:23:42 AM 59.7110 28.0930 285° West 401 461 36,000  Level FlightAware ADS-B
Tue 07:24:18 AM 59.7290 27.9680 286° West 401 461 36,000  Level FlightAware ADS-B
Tue 07:24:50 AM 59.7450 27.8530 285° West 402 463 36,000  Level FlightAware ADS-B
Tue 07:25:26 AM 59.7630 27.7250 286° West 402 463 36,000  Level FlightAware ADS-B
Tue 07:26:02 AM 59.7800 27.6000 285° West 400 460 36,000  Level FlightAware ADS-B
Tue 07:26:34 AM 59.7960 27.4840 285° West 398 458 36,000  Level FlightAware ADS-B
Tue 07:27:10 AM 59.8130 27.3570 285° West 397 457 36,000  Level FlightAware ADS-B
Tue 07:27:46 AM 59.8300 27.2340 285° West 396 456 36,000  Level FlightAware ADS-B
Tue 07:28:18 AM 59.8450 27.1210 285° West 395 455 36,000  Level FlightAware ADS-B
Tue 07:28:54 AM 59.8620 26.9960 285° West 394 453 36,000  Level FlightAware ADS-B
Tue 07:29:30 AM 59.8780 26.8700 284° West 394 453 36,000  Level FlightAware ADS-B
Tue 07:30:03 AM 59.8930 26.7550 285° West 394 453 36,000  Level FlightAware ADS-B
Tue 07:30:42 AM 59.9110 26.6160 285° West 394 453 36,000  Level FlightAware ADS-B
Tue 07:31:14 AM 59.9260 26.5030 285° West 394 453 36,000  Level FlightAware ADS-B
Tue 07:31:50 AM 59.9430 26.3760 285° West 397 457 36,000  Level FlightAware ADS-B
Tue 07:32:26 AM 59.9670 26.2530 291° West 402 463 36,000  Level FlightAware ADS-B
Tue 07:33:02 AM 59.9980 26.1360 298° West 409 471 36,000  Level FlightAware ADS-B
Tue 07:33:34 AM 60.0330 26.0370 305° West 416 479 36,000  Level FlightAware ADS-B
Tue 07:34:12 AM 60.0750 25.9220 306° West 407 468 36,000  Level FlightAware ADS-B
Tue 07:34:44 AM 60.1040 25.8120 298° West 408 470 36,000  Level FlightAware ADS-B
Tue 07:35:20 AM 60.1360 25.6940 299° West 408 470 36,000  Level FlightAware ADS-B
Tue 07:35:56 AM 60.1690 25.5720 299° West 407 468 36,000  Level FlightAware ADS-B
Tue 07:36:30 AM 60.1980 25.4620 298° West 406 467 36,000  Level FlightAware ADS-B
Tue 07:37:02 AM 60.2270 25.3540 298° West 408 470 36,000  Level FlightAware ADS-B
Tue 07:37:42 AM 60.2610 25.2230 298° West 407 468 36,000  Level FlightAware ADS-B
Tue 07:38:18 AM 60.2940 25.0980 298° West 408 470 36,000  Level FlightAware ADS-B
Tue 07:38:50 AM 60.3220 24.9930 298° West 407 468 36,000  Level FlightAware ADS-B
Tue 07:39:26 AM 60.3530 24.8720 297° West 407 468 36,000  Level FlightAware ADS-B
Tue 07:39:58 AM 60.3810 24.7630 298° West 408 470 36,000  Level FlightAware ADS-B
Tue 07:40:34 AM 60.4130 24.6410 298° West 408 470 36,000  Level FlightAware ADS-B
Tue 07:41:10 AM 60.4430 24.5220 297° West 409 471 36,000  Level FlightAware ADS-B
Tue 07:41:46 AM 60.4750 24.3980 298° West 410 472 36,000  Level FlightAware ADS-B
Tue 07:42:22 AM 60.5060 24.2730 297° West 410 472 36,000  Level FlightAware ADS-B
Tue 07:42:54 AM 60.5340 24.1640 298° West 409 471 36,000  Level FlightAware ADS-B
Tue 07:43:32 AM 60.5660 24.0360 297° West 409 471 36,000  Level FlightAware ADS-B
Tue 07:44:08 AM 60.5960 23.9140 297° West 410 472 36,000  Level FlightAware ADS-B
Tue 07:44:40 AM 60.6240 23.8040 297° West 411 473 36,000  Level FlightAware ADS-B
Tue 07:45:12 AM 60.6500 23.6950 296° West 411 473 36,000  Level FlightAware ADS-B
Tue 07:45:52 AM 60.6850 23.5540 297° West 410 472 36,000  Level FlightAware ADS-B
Tue 07:46:28 AM 60.7150 23.4310 297° West 409 471 36,000  Level FlightAware ADS-B
Tue 07:47:04 AM 60.7460 23.3050 297° West 409 471 36,000  Level FlightAware ADS-B
Tue 07:47:36 AM 60.7720 23.1960 296° West 408 470 36,000  Level FlightAware ADS-B
Tue 07:48:12 AM 60.8010 23.0740 296° West 409 471 36,000  Level FlightAware ADS-B
Tue 07:48:46 AM 60.8300 22.9520 296° West 410 472 36,000  Level FlightAware ADS-B
Tue 07:49:17 AM 60.8560 22.8450 297° West 411 473 36,000  Level FlightAware ADS-B
Tue 07:49:59 AM 60.8900 22.6980 295° West 411 473 36,000  Level FlightAware ADS-B
Tue 07:50:31 AM 60.9170 22.5860 296° West 411 473 36,000  Level FlightAware ADS-B
Tue 07:51:07 AM 60.9460 22.4580 295° West 411 473 36,000  Level FlightAware ADS-B
Tue 07:51:42 AM 60.9750 22.3350 296° West 411 473 36,000  Level FlightAware ADS-B
Tue 07:52:19 AM 61.0050 22.2020 295° West 413 475 36,000  Level FlightAware ADS-B
Tue 07:52:51 AM 61.0310 22.0880 295° West 414 476 36,000  Level FlightAware ADS-B
Tue 07:53:27 AM 61.0610 21.9650 297° West 419 482 36,000  Level FlightAware ADS-B
Tue 07:54:03 AM 61.0980 21.8450 303° West 424 488 36,000  Level FlightAware ADS-B
Tue 07:54:39 AM 61.1380 21.7160 303° West 426 490 36,000  Level FlightAware ADS-B
Tue 07:55:12 AM 61.1710 21.6040 301° West 427 491 36,000  Level FlightAware ADS-B
Tue 07:55:47 AM 61.2070 21.4840 302° West 430 495 36,000  Level FlightAware ADS-B
Tue 07:56:24 AM 61.2460 21.3530 302° West 432 497 36,000  Level FlightAware ADS-B
Tue 07:57:04 AM 61.2870 21.2130 301° West 434 499 36,000  Level FlightAware ADS-B
Tue 07:57:40 AM 61.3250 21.0830 301° West 434 499 36,000  Level FlightAware ADS-B
Tue 07:58:16 AM 61.3620 20.9560 301° West 436 502 36,000  Level FlightAware ADS-B
Tue 07:58:47 AM 61.3940 20.8470 302° West 439 505 36,000  Level FlightAware ADS-B
Tue 07:59:21 AM 61.4320 20.7160 301° West 442 509 36,000  Level FlightAware ADS-B
Tue 07:59:59 AM 61.4710 20.5810 301° West 444 511 36,000  Level FlightAware ADS-B
Tue 08:00:33 AM 61.5070 20.4550 301° West 447 514 36,000  Level FlightAware ADS-B
Tue 08:01:07 AM 61.5430 20.3270 301° West 447 514 36,000  Level FlightAware ADS-B
Tue 08:01:44 AM 61.5820 20.1880 301° West 447 514 36,000  Level FlightAware ADS-B
Tue 08:02:15 AM 61.6140 20.0760 301° West 447 514 36,000  Level FlightAware ADS-B
Tue 08:02:54 AM 61.6540 19.9340 301° West 447 514 36,000  Level FlightAware ADS-B
Tue 08:03:24 AM 61.6860 19.8170 300° West 446 513 36,000  Level FlightAware ADS-B
Tue 08:04:04 AM 61.7280 19.6660 300° West 447 514 36,000  Level FlightAware ADS-B
Tue 08:04:40 AM 61.7630 19.5360 300° West 447 514 36,000  Level FlightAware ADS-B
Tue 08:05:10 AM 61.7940 19.4190 299° West 447 514 36,000  Level FlightAware ADS-B
Tue 08:05:43 AM 61.8250 19.2890 297° West 446 513 36,000  Level FlightAware ADS-B
Tue 08:06:25 AM 61.8650 19.1230 297° West 446 513 36,000  Level FlightAware ADS-B
Tue 08:06:57 AM 61.8950 19.0000 297° West 445 512 36,000  Level FlightAware ADS-B
Tue 08:07:34 AM 61.9290 18.8600 297° West 444 511 36,000  Level FlightAware ADS-B
Tue 08:08:07 AM 61.9590 18.7330 297° West 444 511 36,000  Level FlightAware ADS-B
Tue 08:08:45 AM 61.9950 18.5850 297° West 444 511 36,000  Level FlightAware ADS-B
Tue 08:09:20 AM 62.0270 18.4470 296° West 444 511 36,000  Level FlightAware ADS-B
Tue 08:09:53 AM 62.0570 18.3220 297° West 444 511 36,000  Level FlightAware ADS-B
Tue 08:10:30 AM 62.0910 18.1760 297° West 445 512 36,000  Level FlightAware ADS-B
Tue 08:11:02 AM 62.1210 18.0480 297° West 446 513 36,000  Level FlightAware ADS-B
Tue 08:11:34 AM 62.1510 17.9190 297° West 446 513 36,000  Level FlightAware ADS-B
Tue 08:12:16 AM 62.1880 17.7570 296° West 446 513 36,000  Level FlightAware ADS-B
Tue 08:12:48 AM 62.2170 17.6290 296° West 447 514 36,000  Level FlightAware ADS-B
Tue 08:13:24 AM 62.2500 17.4850 296° West 446 513 36,000  Level FlightAware ADS-B
Tue 08:14:00 AM 62.2820 17.3420 296° West 446 513 36,000  Level FlightAware ADS-B
Tue 08:14:32 AM 62.3110 17.2130 296° West 445 512 36,000  Level FlightAware ADS-B
Tue 08:15:06 AM 62.3410 17.0790 296° West 445 512 36,000  Level FlightAware ADS-B
Tue 08:15:40 AM 62.3710 16.9450 296° West 443 510 36,000  Level FlightAware ADS-B
Tue 08:16:20 AM 62.4060 16.7840 295° West 445 512 36,000  Level FlightAware ADS-B
Tue 08:16:52 AM 62.4340 16.6560 295° West 448 516 36,000  Level FlightAware ADS-B
Tue 08:17:28 AM 62.4660 16.5110 296° West 447 514 36,000  Level FlightAware ADS-B
Tue 08:18:05 AM 62.4970 16.3660 295° West 445 512 36,000  Level FlightAware ADS-B
Tue 08:18:41 AM 62.5280 16.2190 295° West 446 513 36,000  Level FlightAware ADS-B
Tue 08:19:12 AM 62.5560 16.0890 295° West 447 514 36,000  Level FlightAware ADS-B
Tue 08:19:48 AM 62.5850 15.9510 295° West 448 516 36,000  Level FlightAware ADS-B
Tue 08:20:24 AM 62.6180 15.7940 295° West 450 518 36,000  Level FlightAware ADS-B
Tue 08:21:00 AM 62.6480 15.6470 294° West 450 518 36,000  Level FlightAware ADS-B
Tue 08:21:37 AM 62.6790 15.4980 294° West 448 516 36,000  Level FlightAware ADS-B
Tue 08:22:09 AM 62.7060 15.3660 294° West 448 516 36,000  Level FlightAware ADS-B
Tue 08:22:47 AM 62.7390 15.2070 294° West 449 517 36,000  Level FlightAware ADS-B
Tue 08:23:19 AM 62.7650 15.0750 293° West 449 517 36,000  Level FlightAware ADS-B
Tue 08:23:55 AM 62.7950 14.9270 294° West 449 517 36,000  Level FlightAware ADS-B
Tue 08:24:31 AM 62.8250 14.7760 294° West 450 518 36,000  Level FlightAware ADS-B
Tue 08:25:05 AM 62.8530 14.6390 294° West 448 516 36,000  Level FlightAware ADS-B
Tue 08:25:41 AM 62.8830 14.4850 293° West 449 517 36,000  Level FlightAware ADS-B
Tue 08:26:17 AM 62.9320 14.3610 311° West 461 531 36,000  Level FlightAware ADS-B
Tue 08:26:41 AM 62.9690 14.2840 317° Northwest 460 529 36,000  Level FlightAware ADS-B
Tue 08:27:17 AM 63.0240 14.1690 317° Northwest 461 531 36,000  Level FlightAware ADS-B
Tue 08:27:53 AM 63.0800 14.0520 317° Northwest 465 535 36,000  Level FlightAware ADS-B
Tue 08:28:29 AM 63.1360 13.9350 317° Northwest 465 535 36,000  Level FlightAware ADS-B
Tue 08:29:01 AM 63.1850 13.8320 317° Northwest 464 534 36,000  Level FlightAware ADS-B
Tue 08:29:37 AM 63.2410 13.7140 317° Northwest 465 535 36,000  Level FlightAware ADS-B
Tue 08:30:15 AM 63.3000 13.5870 316° Northwest 464 534 36,000  Level FlightAware ADS-B
Tue 08:30:47 AM 63.3490 13.4840 317° Northwest 463 533 36,000  Level FlightAware ADS-B
Tue 08:31:21 AM 63.4010 13.3710 316° Northwest 461 531 36,000  Level FlightAware ADS-B
Tue 08:31:59 AM 63.4600 13.2440 316° Northwest 460 529 36,000  Level FlightAware ADS-B
Tue 08:32:31 AM 63.5080 13.1390 316° Northwest 461 531 36,000  Level FlightAware ADS-B
Tue 08:33:07 AM 63.5640 13.0160 316° Northwest 460 529 36,000  Level FlightAware ADS-B
Tue 08:33:43 AM 63.6170 12.8980 315° West 459 528 36,000  Level FlightAware ADS-B
Tue 08:34:15 AM 63.6650 12.7930 316° Northwest 457 526 36,000  Level FlightAware ADS-B
Tue 08:34:53 AM 63.7220 12.6660 315° West 458 527 36,000  Level FlightAware ADS-B
Tue 08:35:29 AM 63.7760 12.5440 315° West 463 533 36,000  Level FlightAware ADS-B
Tue 08:36:01 AM 63.8250 12.4330 315° West 467 537 36,000  Level FlightAware ADS-B
Tue 08:36:37 AM 63.8800 12.3080 315° West 467 537 36,000  Level FlightAware ADS-B
Tue 08:37:13 AM 63.9350 12.1830 315° West 465 535 36,000  Level FlightAware ADS-B
Tue 08:37:49 AM 63.9890 12.0590 315° West 462 532 36,000  Level FlightAware ADS-B
Tue 08:38:21 AM 64.0370 11.9470 314° West 467 537 36,000  Level FlightAware ADS-B
Tue 08:38:57 AM 64.0910 11.8230 315° West 467 537 36,000  Level FlightAware ADS-B
Tue 08:39:33 AM 64.1450 11.6960 314° West 466 536 36,000  Level FlightAware ADS-B
Tue 08:40:09 AM 64.1980 11.5710 314° West 456 525 36,000  Level FlightAware ADS-B
Tue 08:40:43 AM 64.2490 11.4520 315° West 456 525 36,000  Level FlightAware ADS-B
Tue 08:41:19 AM 64.3010 11.3270 314° West 454 522 36,000  Level FlightAware ADS-B
Tue 08:41:51 AM 64.3470 11.2170 314° West 451 519 36,000  Level FlightAware ADS-B
Tue 08:42:27 AM 64.3990 11.0920 314° West 449 517 36,000  Level FlightAware ADS-B
Tue 08:43:05 AM 64.4530 10.9610 314° West 446 513 36,000  Level FlightAware ADS-B
Tue 08:43:37 AM 64.4980 10.8510 314° West 444 511 36,000  Level FlightAware ADS-B
Tue 08:44:13 AM 64.5470 10.7320 314° West 443 510 36,000  Level FlightAware ADS-B
Tue 08:44:49 AM 64.6000 10.6010 313° West 442 509 36,000  Level FlightAware ADS-B
Tue 08:45:22 AM 64.6450 10.4890 313° West 442 509 36,000  Level FlightAware ADS-B
Tue 08:45:58 AM 64.6950 10.3670 314° West 441 507 36,000  Level FlightAware ADS-B
Tue 08:46:42 AM 64.7570 10.2110 313° West 442 509 36,000  Level FlightAware ADS-B
Tue 08:47:14 AM 64.8010 10.0990 313° West 443 510 36,000  Level FlightAware ADS-B
Tue 08:47:50 AM 64.8510 9.9720 313° West 445 512 36,000  Level FlightAware ADS-B
Tue 08:48:26 AM 64.9020 9.8430 313° West 445 512 36,000  Level FlightAware ADS-B
Tue 08:48:58 AM 64.9460 9.7290 312° West 446 513 36,000  Level FlightAware ADS-B
Tue 08:49:33 AM 64.9950 9.6040 313° West 448 516 36,000  Level FlightAware ADS-B
Tue 08:50:11 AM 65.0470 9.4680 312° West 450 518 36,000  Level FlightAware ADS-B
Tue 08:50:43 AM 65.0930 9.3510 313° West 451 519 36,000  Level FlightAware ADS-B
Tue 08:51:19 AM 65.1430 9.2170 312° West 453 521 36,000  Level FlightAware ADS-B
Tue 08:52:03 AM 65.2040 9.0580 312° West 456 525 36,000  Level FlightAware ADS-B
Tue 08:52:35 AM 65.2500 8.9350 312° West 458 527 36,000  Level FlightAware ADS-B
Tue 08:53:05 AM 65.2920 8.8230 312° West 460 529 36,000  Level FlightAware ADS-B
Tue 08:53:47 AM 65.3520 8.6610 312° West 463 533 36,000  Level FlightAware ADS-B
Tue 08:54:21 AM 65.4000 8.5310 312° West 465 535 36,000  Level FlightAware ADS-B
Tue 08:54:57 AM 65.4510 8.3920 311° West 466 536 36,000  Level FlightAware ADS-B
Tue 08:55:48 AM 65.5160 8.2130 311° West 466 536 36,000  Level FlightAware ADS-B
Tue 08:56:24 AM 65.5590 8.0930 311° West 466 536 36,000  Level FlightAware ADS-B
Tue 08:57:00 AM 65.6020 7.9730 311° West 466 536 36,000  Level FlightAware ADS-B
Tue 08:57:36 AM 65.6460 7.8520 311° West 466 536 36,000  Level FlightAware ADS-B
Tue 08:58:13 AM 65.6900 7.7280 311° West 466 536 36,000  Level FlightAware ADS-B
Tue 08:58:49 AM 65.7330 7.6070 311° West 466 536 36,000  Level FlightAware ADS-B
Tue 08:59:25 AM 65.7770 7.4850 311° West 466 536 36,000  Level FlightAware ADS-B
Tue 08:59:50 AM 65.8070 7.4010 311° West 466 536 36,000  Level FlightAware ADS-B
Tue 09:00:27 AM 65.8510 7.2760 311° West 466 536 36,000  Level FlightAware ADS-B
Tue 09:01:03 AM 65.8940 7.1540 311° West 466 536 36,000  Level FlightAware ADS-B
Tue 09:01:39 AM 65.9380 7.0320 312° West 466 536 36,000  Level FlightAware ADS-B
Tue 09:02:16 AM 65.9820 6.9070 311° West 466 536 36,000  Level FlightAware ADS-B
Tue 09:02:50 AM 66.0230 6.7910 311° West 466 536 36,000  Level FlightAware ADS-B
Tue 09:03:27 AM 66.0670 6.6650 311° West 466 536 36,000  Level FlightAware ADS-B
Tue 09:04:03 AM 66.1110 6.5420 311° West 466 536 36,000  Level FlightAware ADS-B
Tue 09:04:40 AM 66.1550 6.4150 311° West 466 536 36,000  Level FlightAware ADS-B
Tue 09:05:16 AM 66.1980 6.2920 311° West 466 536 36,000  Level FlightAware ADS-B
Tue 09:07:00 AM 66.2265 5.8102 279° West  Level Estimated
Tue 09:08:00 AM 66.2422 5.5317 278° West  Level Estimated
Tue 09:09:00 AM 66.2575 5.2529 278° West  Level Estimated
Tue 09:10:00 AM 66.2722 4.9738 278° West  Level Estimated
Tue 09:11:00 AM 66.2865 4.6943 277° West  Level Estimated
Tue 09:12:00 AM 66.3002 4.4145 277° West  Level Estimated
Tue 09:13:00 AM 66.3135 4.1344 277° West  Level Estimated
Tue 09:14:00 AM 66.3262 3.8541 277° West  Level Estimated
Tue 09:15:00 AM 66.3385 3.5735 276° West  Level Estimated
Tue 09:16:00 AM 66.3502 3.2925 276° West  Level Estimated
Tue 09:17:00 AM 66.3614 3.0114 276° West  Level Estimated
Tue 09:18:00 AM 66.3721 2.7300 276° West  Level Estimated
Tue 09:19:00 AM 66.3824 2.4483 275° West  Level Estimated
Tue 09:20:00 AM 66.3921 2.1664 275° West  Level Estimated
Tue 09:21:00 AM 66.4013 1.8843 275° West  Level Estimated
Tue 09:22:00 AM 66.4099 1.6021 275° West  Level Estimated
Tue 09:23:00 AM 66.4181 1.3196 274° West  Level Estimated
Tue 09:24:00 AM 66.4258 1.0369 274° West  Level Estimated
Tue 09:25:00 AM 66.4329 0.7541 274° West  Level Estimated
Tue 09:26:00 AM 66.4396 0.4711 273° West  Level Estimated
Tue 09:27:00 AM 66.4457 0.1880 273° West  Level Estimated
Tue 09:28:00 AM 66.4513 -0.0953 273° West  Level Estimated
Tue 09:29:00 AM 66.4564 -0.3787 273° West  Level Estimated
Tue 09:30:00 AM 66.4610 -0.6621 272° West  Level Estimated
Tue 09:31:00 AM 66.4650 -0.9457 272° West  Level Estimated
Tue 09:32:00 AM 66.4686 -1.2294 272° West  Level Estimated
Tue 09:33:00 AM 66.4716 -1.5132 272° West  Level Estimated
Tue 09:34:00 AM 66.4742 -1.7970 271° West  Level Estimated
Tue 09:35:00 AM 66.4762 -2.0808 271° West  Level Estimated
Tue 09:36:00 AM 66.4777 -2.3647 271° West  Level Estimated
Tue 09:37:00 AM 66.4787 -2.6487 271° West  Level Estimated
Tue 09:38:00 AM 66.4791 -2.9326 270° West  Level Estimated
Tue 09:39:00 AM 66.4791 -3.2166 270° West  Level Estimated
Tue 09:40:00 AM 66.4786 -3.5005 270° West  Level Estimated
Tue 09:41:00 AM 66.4775 -3.7845 270° West  Level Estimated
Tue 09:42:00 AM 66.4759 -4.0684 269° West  Level Estimated
Tue 09:43:00 AM 66.4738 -4.3522 269° West  Level Estimated
Tue 09:44:00 AM 66.4712 -4.6360 269° West  Level Estimated
Tue 09:45:00 AM 66.4680 -4.9198 269° West  Level Estimated
Tue 09:46:00 AM 66.4644 -5.2034 268° West  Level Estimated
Tue 09:47:00 AM 66.4602 -5.4870 268° West  Level Estimated
Tue 09:48:00 AM 66.4556 -5.7705 268° West  Level Estimated
Tue 09:49:00 AM 66.4504 -6.0538 268° West  Level Estimated
Tue 09:50:00 AM 66.4447 -6.3371 267° West  Level Estimated
Tue 09:51:00 AM 66.4385 -6.6202 267° West  Level Estimated
Tue 09:52:00 AM 66.4317 -6.9031 267° West  Level Estimated
Tue 09:53:00 AM 66.4245 -7.1859 266° West  Level Estimated
Tue 09:54:00 AM 66.4167 -7.4686 266° West  Level Estimated
Tue 09:55:00 AM 66.4085 -7.7510 266° West  Level Estimated
Tue 09:56:00 AM 66.3997 -8.0332 266° West  Level Estimated
Tue 09:57:00 AM 66.3904 -8.3153 265° West  Level Estimated
Tue 09:58:00 AM 66.3806 -8.5971 265° West  Level Estimated
Tue 09:59:00 AM 66.3703 -8.8787 265° West  Level Estimated
Tue 10:00:00 AM 66.3595 -9.1601 265° West  Level Estimated
Tue 10:01:00 AM 66.3482 -9.4412 264° West  Level Estimated
Tue 10:02:00 AM 66.3364 -9.7221 264° West  Level Estimated
Tue 10:03:00 AM 66.3241 -10.0027 264° West  Level Estimated
Tue 10:04:00 AM 66.3112 -10.2830 264° West  Level Estimated
Tue 10:05:00 AM 66.2979 -10.5631 263° West  Level Estimated
Tue 10:06:00 AM 66.2841 -10.8428 263° West  Level Estimated
Tue 10:07:00 AM 66.2697 -11.1222 263° West  Level Estimated
Tue 10:08:00 AM 66.2549 -11.4013 263° West  Level Estimated
Tue 10:09:00 AM 66.2395 -11.6800 262° West  Level Estimated
Tue 10:10:00 AM 66.2237 -11.9584 262° West  Level Estimated
Tue 10:11:00 AM 66.2074 -12.2365 262° West  Level Estimated
Tue 10:12:00 AM 66.1905 -12.5142 262° West  Level Estimated
Tue 10:13:00 AM 66.1732 -12.7915 261° West  Level Estimated
Tue 10:14:00 AM 66.1554 -13.0684 261° West  Level Estimated
Tue 10:15:00 AM 66.1370 -13.3449 261° West  Level Estimated
Tue 10:16:00 AM 66.1182 -13.6211 261° West  Level Estimated
Tue 10:17:00 AM 66.0989 -13.8968 260° West  Level Estimated
Tue 10:18:00 AM 66.0791 -14.1721 260° West  Level Estimated
Tue 10:19:00 AM 66.0588 -14.4469 260° West  Level Estimated
Tue 10:20:00 AM 66.0380 -14.7213 260° West  Level Estimated
Tue 10:21:00 AM 66.0168 -14.9953 259° West  Level Estimated
Tue 10:22:00 AM 65.9950 -15.2688 259° West  Level Estimated
Tue 10:23:00 AM 65.9728 -15.5418 259° West  Level Estimated
Tue 10:24:00 AM 65.9501 -15.8144 259° West  Level Estimated
Tue 10:25:00 AM 65.9269 -16.0864 258° West  Level Estimated
Tue 10:26:00 AM 65.9032 -16.3580 258° West  Level Estimated
Tue 10:27:00 AM 65.8790 -16.6290 258° West  Level Estimated
Tue 10:28:00 AM 65.8544 -16.8996 258° West  Level Estimated
Tue 10:29:00 AM 65.8293 -17.1696 257° West  Level Estimated
Tue 10:30:00 AM 65.8037 -17.4391 257° West  Level Estimated
Tue 10:31:00 AM 65.7777 -17.7080 257° West  Level Estimated
Tue 10:32:00 AM 65.7511 -17.9764 257° West  Level Estimated
Tue 10:33:00 AM 65.7241 -18.2442 256° West  Level Estimated
Tue 10:34:00 AM 65.6967 -18.5115 256° West  Level Estimated
Tue 10:35:00 AM 65.6687 -18.7782 256° West  Level Estimated
Tue 10:36:00 AM 65.6403 -19.0443 256° West  Level Estimated
Tue 10:37:00 AM 65.6115 -19.3099 255° West  Level Estimated
Tue 10:38:00 AM 65.5822 -19.5748 255° West  Level Estimated
Tue 10:39:00 AM 65.5524 -19.8391 255° West  Level Estimated
Tue 10:40:00 AM 65.5221 -20.1029 255° West  Level Estimated
Tue 10:41:00 AM 65.4914 -20.3660 254° West  Level Estimated
Tue 10:42:00 AM 65.4603 -20.6285 254° West  Level Estimated
Tue 10:43:00 AM 65.4287 -20.8903 254° West  Level Estimated
Tue 10:44:00 AM 65.3966 -21.1516 254° West  Level Estimated
Tue 10:45:00 AM 65.3641 -21.4122 253° West  Level Estimated
Tue 10:46:00 AM 65.3311 -21.6721 253° West  Level Estimated
Tue 10:47:00 AM 65.2977 -21.9314 253° West  Level Estimated
Tue 10:48:00 AM 65.2639 -22.1900 253° West  Level Estimated
Tue 10:49:00 AM 65.2296 -22.4480 253° West  Level Estimated
Tue 10:50:00 AM 65.1949 -22.7052 252° West  Level Estimated
Tue 10:51:00 AM 65.1597 -22.9618 252° West  Level Estimated
Tue 10:52:00 AM 65.1241 -23.2178 252° West  Level Estimated
Tue 10:53:00 AM 65.0881 -23.4730 252° West  Level Estimated
Tue 10:54:00 AM 65.0516 -23.7275 251° West  Level Estimated
Tue 10:55:00 AM 65.0147 -23.9814 251° West  Level Estimated
Tue 10:56:00 AM 64.9773 -24.2345 251° West  Level Estimated
Tue 10:57:00 AM 64.9396 -24.4869 251° West  Level Estimated
Tue 10:58:00 AM 64.9014 -24.7386 250° West  Level Estimated
Tue 10:59:00 AM 64.8628 -24.9896 250° West  Level Estimated
Tue 11:00:00 AM 64.8238 -25.2399 250° West  Level Estimated
Tue 11:01:00 AM 64.7843 -25.4894 250° West  Level Estimated
Tue 11:02:00 AM 64.7444 -25.7383 250° West  Level Estimated
Tue 11:03:00 AM 64.7041 -25.9863 249° West  Level Estimated
Tue 11:04:00 AM 64.6634 -26.2337 249° West  Level Estimated
Tue 11:05:00 AM 64.6223 -26.4802 249° West  Level Estimated
Tue 11:06:00 AM 64.5808 -26.7261 249° West  Level Estimated
Tue 11:07:00 AM 64.5389 -26.9711 248° West  Level Estimated
Tue 11:08:00 AM 64.4966 -27.2155 248° West  Level Estimated
Tue 11:09:00 AM 64.4538 -27.4590 248° West  Level Estimated
Tue 11:10:00 AM 64.4107 -27.7018 248° West  Level Estimated
Tue 11:11:00 AM 64.3671 -27.9439 248° West  Level Estimated
Tue 11:12:00 AM 64.3232 -28.1852 247° West  Level Estimated
Tue 11:13:00 AM 64.2789 -28.4256 247° West  Level Estimated
Tue 11:14:00 AM 64.2341 -28.6654 247° West  Level Estimated
Tue 11:15:00 AM 64.1890 -28.9043 247° West  Level Estimated
Tue 11:16:00 AM 64.1435 -29.1425 246° West  Level Estimated
Tue 11:17:00 AM 64.0976 -29.3799 246° West  Level Estimated
Tue 11:18:00 AM 64.0513 -29.6165 246° West  Level Estimated
Tue 11:19:00 AM 64.0047 -29.8523 246° West  Level Estimated
Tue 11:20:00 AM 63.9576 -30.0873 246° West  Level Estimated
Tue 11:21:00 AM 63.9102 -30.3215 245° Southwest  Level Estimated
Tue 11:22:00 AM 63.8624 -30.5550 245° Southwest  Level Estimated
Tue 11:23:00 AM 63.8142 -30.7876 245° Southwest  Level Estimated
Tue 11:24:00 AM 63.7657 -31.0194 245° Southwest  Level Estimated
Tue 11:25:00 AM 63.7168 -31.2505 245° Southwest  Level Estimated
Tue 11:26:00 AM 63.6675 -31.4807 244° Southwest  Level Estimated
Tue 11:27:00 AM 63.6178 -31.7102 244° Southwest  Level Estimated
Tue 11:28:00 AM 63.5678 -31.9388 244° Southwest  Level Estimated
Tue 11:29:00 AM 63.5174 -32.1666 244° Southwest  Level Estimated
Tue 11:30:00 AM 63.4667 -32.3937 244° Southwest  Level Estimated
Tue 11:31:00 AM 63.4156 -32.6199 243° Southwest  Level Estimated
Tue 11:32:00 AM 63.3641 -32.8453 243° Southwest  Level Estimated
Tue 11:33:00 AM 63.3123 -33.0699 243° Southwest  Level Estimated
Tue 11:34:00 AM 63.2602 -33.2937 243° Southwest  Level Estimated
Tue 11:35:00 AM 63.2077 -33.5167 242° Southwest  Level Estimated
Tue 11:36:00 AM 63.1548 -33.7389 242° Southwest  Level Estimated
Tue 11:37:00 AM 63.1016 -33.9602 242° Southwest  Level Estimated
Tue 11:38:00 AM 63.0480 -34.1808 242° Southwest  Level Estimated
Tue 11:39:00 AM 62.9942 -34.4005 242° Southwest  Level Estimated
Tue 11:40:00 AM 62.9399 -34.6195 242° Southwest  Level Estimated
Tue 11:41:00 AM 62.8854 -34.8376 241° Southwest  Level Estimated
Tue 11:42:00 AM 62.8305 -35.0549 241° Southwest  Level Estimated
Tue 11:43:00 AM 62.7752 -35.2714 241° Southwest  Level Estimated
Tue 11:44:00 AM 62.7197 -35.4870 241° Southwest  Level Estimated
Tue 11:45:00 AM 62.6637 -35.7019 241° Southwest  Level Estimated
Tue 11:46:00 AM 62.6075 -35.9160 240° Southwest  Level Estimated
Tue 11:47:00 AM 62.5510 -36.1292 240° Southwest  Level Estimated
Tue 11:48:00 AM 62.4941 -36.3416 240° Southwest  Level Estimated
Tue 11:49:00 AM 62.4369 -36.5533 240° Southwest  Level Estimated
Tue 11:50:00 AM 62.3794 -36.7641 240° Southwest  Level Estimated
Tue 11:51:00 AM 62.3216 -36.9741 239° Southwest  Level Estimated
Tue 11:52:00 AM 62.2634 -37.1833 239° Southwest  Level Estimated
Tue 11:53:00 AM 62.2050 -37.3917 239° Southwest  Level Estimated
Tue 11:54:00 AM 62.1462 -37.5992 239° Southwest  Level Estimated
Tue 11:55:00 AM 62.0871 -37.8060 239° Southwest  Level Estimated
Tue 11:56:00 AM 62.0277 -38.0120 238° Southwest  Level Estimated
Tue 11:57:00 AM 61.9680 -38.2171 238° Southwest  Level Estimated
Tue 11:58:00 AM 61.9080 -38.4215 238° Southwest  Level Estimated
Tue 11:59:00 AM 61.8477 -38.6251 238° Southwest  Level Estimated
Tue 12:00:00 PM 61.7871 -38.8278 238° Southwest  Level Estimated
Tue 12:01:00 PM 61.7262 -39.0298 238° Southwest  Level Estimated
Tue 12:02:00 PM 61.6651 -39.2309 237° Southwest  Level Estimated
Tue 12:03:00 PM 61.6036 -39.4313 237° Southwest  Level Estimated
Tue 12:04:00 PM 61.5418 -39.6309 237° Southwest  Level Estimated
Tue 12:05:00 PM 61.4797 -39.8296 237° Southwest  Level Estimated
Tue 12:06:00 PM 61.4174 -40.0276 237° Southwest  Level Estimated
Tue 12:07:00 PM 61.3547 -40.2248 237° Southwest  Level Estimated
Tue 12:08:00 PM 61.2918 -40.4212 236° Southwest  Level Estimated
Tue 12:09:00 PM 61.2286 -40.6168 236° Southwest  Level Estimated
Tue 12:10:00 PM 61.1651 -40.8116 236° Southwest  Level Estimated
Tue 12:11:00 PM 61.1013 -41.0057 236° Southwest  Level Estimated
Tue 12:12:00 PM 61.0373 -41.1989 236° Southwest  Level Estimated
Tue 12:12:50 PM 62.4010 -48.8950 236° Southwest 476 548 36,000  Level FlightAware ADS-B
Tue 12:13:00 PM 60.9729 -41.3914 236° Southwest  Level Estimated
Tue 12:13:28 PM 62.3490 -49.0400 232° Southwest 477 549 36,000  Level FlightAware ADS-B
Tue 12:14:02 PM 62.3050 -49.1630 232° Southwest 477 549 36,000  Level FlightAware ADS-B
Tue 12:14:40 PM 62.2520 -49.3130 233° Southwest 479 551 36,000  Level FlightAware ADS-B
Tue 12:15:10 PM 62.2120 -49.4230 232° Southwest 479 551 36,000  Level FlightAware ADS-B
Tue 12:15:40 PM 62.1720 -49.5330 232° Southwest 478 550 36,000  Level FlightAware ADS-B
Tue 12:16:28 PM 62.1130 -49.6950 232° Southwest 478 550 36,000  Level FlightAware ADS-B
Tue 12:17:04 PM 62.0710 -49.8090 232° Southwest 478 550 36,000  Level FlightAware ADS-B
Tue 12:17:40 PM 62.0290 -49.9230 232° Southwest 478 550 36,000  Level FlightAware ADS-B
Tue 12:18:14 PM 61.9650 -50.1060 233° Southwest 480 552 36,000  Level FlightAware ADS-B
Tue 12:18:50 PM 61.9200 -50.2460 236° Southwest 480 552 36,000  Level FlightAware ADS-B
Tue 12:19:26 PM 61.8750 -50.3870 236° Southwest 480 552 36,000  Level FlightAware ADS-B
Tue 12:20:12 PM 61.8220 -50.5490 235° Southwest 479 551 36,000  Level FlightAware ADS-B
Tue 12:20:48 PM 61.7830 -50.6670 235° Southwest 479 551 36,000  Level FlightAware ADS-B
Tue 12:21:24 PM 61.7440 -50.7840 235° Southwest 479 551 36,000  Level FlightAware ADS-B
Tue 12:22:21 PM 61.6540 -51.0560 235° Southwest 478 550 36,000  Level FlightAware ADS-B
Tue 12:23:03 PM 61.6010 -51.2150 235° Southwest 478 550 36,000  Level FlightAware ADS-B
Tue 12:23:40 PM 61.5600 -51.3330 234° Southwest 478 550 36,000  Level FlightAware ADS-B
Tue 12:24:14 PM 61.5220 -51.4410 234° Southwest 478 550 36,000  Level FlightAware ADS-B
Tue 12:24:50 PM 61.4820 -51.5560 234° Southwest 478 550 36,000  Level FlightAware ADS-B
Tue 12:25:26 PM 61.4420 -51.6710 234° Southwest 478 550 36,000  Level FlightAware ADS-B
Tue 12:26:02 PM 61.4030 -51.7850 234° Southwest 478 550 36,000  Level FlightAware ADS-B
Tue 12:26:38 PM 61.3630 -51.8990 234° Southwest 478 550 36,000  Level FlightAware ADS-B
Tue 12:27:16 PM 61.3210 -52.0200 234° Southwest 478 550 36,000  Level FlightAware ADS-B
Tue 12:27:52 PM 61.2810 -52.1340 234° Southwest 478 550 36,000  Level FlightAware ADS-B
Tue 12:28:28 PM 61.2410 -52.2480 234° Southwest 478 550 36,000  Level FlightAware ADS-B
Tue 12:29:05 PM 61.2000 -52.3640 234° Southwest 478 550 36,000  Level FlightAware ADS-B
Tue 12:29:41 PM 61.1610 -52.4780 235° Southwest 478 550 36,000  Level FlightAware ADS-B
Tue 12:30:17 PM 61.1210 -52.5910 234° Southwest 478 550 36,000  Level FlightAware ADS-B
Tue 12:30:53 PM 61.0810 -52.7050 234° Southwest 478 550 36,000  Level FlightAware ADS-B
Tue 12:31:29 PM 61.0410 -52.8180 234° Southwest 478 550 36,000  Level FlightAware ADS-B
Tue 12:32:05 PM 61.0010 -52.9310 234° Southwest 478 550 36,000  Level FlightAware ADS-B
Tue 12:32:41 PM 60.9620 -53.0440 235° Southwest 478 550 36,000  Level FlightAware ADS-B
Tue 12:35:00 PM 60.7646 -53.3995 221° Southwest  Level Estimated
Tue 12:36:00 PM 60.6791 -53.5517 221° Southwest  Level Estimated
Tue 12:37:00 PM 60.5935 -53.7030 221° Southwest  Level Estimated
Tue 12:38:00 PM 60.5077 -53.8535 221° Southwest  Level Estimated
Tue 12:39:00 PM 60.4217 -54.0032 221° Southwest  Level Estimated
Tue 12:40:00 PM 60.3355 -54.1521 221° Southwest  Level Estimated
Tue 12:41:00 PM 60.2492 -54.3003 220° Southwest  Level Estimated
Tue 12:42:00 PM 60.1627 -54.4476 220° Southwest  Level Estimated
Tue 12:43:00 PM 60.0761 -54.5942 220° Southwest  Level Estimated
Tue 12:44:00 PM 59.9818 -54.7524 220° Southwest  Level Estimated
Tue 12:45:00 PM 59.8874 -54.9097 220° Southwest  Level Estimated
Tue 12:46:00 PM 59.7928 -55.0662 220° Southwest  Level Estimated
Tue 12:47:00 PM 59.6981 -55.2217 220° Southwest  Level Estimated
Tue 12:48:00 PM 59.6031 -55.3763 220° Southwest  Level Estimated
Tue 12:48:27 PM 59.5333 -56.5833 219° Southwest 490 564 36,000  Level Gander Center
Tue 12:49:00 PM 59.5080 -55.5301 219° Southwest  Level Estimated
Tue 12:49:27 PM 59.4667 -56.8000 239° Southwest 490 564 36,000  Level Gander Center
Tue 12:50:00 PM 59.4126 -55.6830 219° Southwest  Level Estimated
Tue 12:50:27 PM 59.3500 -57.0000 221° Southwest 490 564 36,000  Level Gander Center
Tue 12:51:00 PM 59.3171 -55.8351 219° Southwest  Level Estimated
Tue 12:51:27 PM 59.2667 -57.1833 228° Southwest 480 552 36,000  Level Gander Center
Tue 12:52:00 PM 59.2215 -55.9863 219° Southwest  Level Estimated
Tue 12:52:27 PM 59.1833 -57.3833 231° Southwest 480 552 36,000  Level Gander Center
Tue 12:53:00 PM 59.1256 -56.1366 219° Southwest  Level Estimated
Tue 12:53:27 PM 59.1000 -57.5833 231° Southwest 480 552 36,000  Level Gander Center
Tue 12:54:27 PM 59.0000 -57.7833 226° Southwest 480 552 36,000  Level Gander Center
Tue 12:55:27 PM 58.9333 -57.9833 237° Southwest 480 552 36,000  Level Gander Center
Tue 12:56:27 PM 58.8500 -58.1667 229° Southwest 480 552 36,000  Level Gander Center
Tue 12:57:27 PM 58.7500 -58.3667 226° Southwest 480 552 36,000  Level Gander Center
Tue 12:58:27 PM 58.6667 -58.5667 231° Southwest 480 552 36,000  Level Gander Center
Tue 12:59:27 PM 58.5833 -58.7500 229° Southwest 480 552 36,000  Level Gander Center
Tue 01:00:27 PM 58.4833 -58.9167 221° Southwest 480 552 36,000  Level Gander Center
Tue 01:01:27 PM 58.4000 -59.1167 232° Southwest 470 541 36,000  Level Gander Center
Tue 01:02:27 PM 58.3000 -59.3167 226° Southwest 470 541 36,000  Level Gander Center
Tue 01:03:27 PM 58.2167 -59.4833 227° Southwest 470 541 36,000  Level Gander Center
Tue 01:04:27 PM 58.1500 -59.6667 235° Southwest 470 541 36,000  Level Gander Center
Tue 01:05:27 PM 58.0500 -59.8667 227° Southwest 470 541 36,000  Level Gander Center
Tue 01:06:27 PM 57.9333 -60.0000 211° Southwest 470 541 36,000  Level Gander Center
Tue 01:07:27 PM 57.8333 -60.1500 219° Southwest 470 541 36,000  Level Gander Center
Tue 01:08:27 PM 57.7167 -60.2833 211° Southwest 480 552 36,000  Level Gander Center
Tue 01:09:27 PM 57.6000 -60.4167 211° Southwest 480 552 36,000  Level Gander Center
Tue 01:10:27 PM 57.5000 -60.5333 212° Southwest 470 541 36,000  Level Gander Center
Tue 01:11:27 PM 57.3833 -60.7000 218° Southwest 480 552 36,000  Level Gander Center
Tue 01:12:27 PM 57.2667 -60.8167 208° Southwest 480 552 36,000  Level Gander Center
Tue 01:13:27 PM 57.1667 -60.9500 216° Southwest 470 541 36,000  Level Gander Center
Tue 01:14:27 PM 57.0500 -61.0667 209° Southwest 480 552 36,000  Level Gander Center
Tue 01:15:27 PM 56.9333 -61.2167 215° Southwest 480 552 36,000  Level Gander Center
Tue 01:16:27 PM 56.8167 -61.3500 212° Southwest 490 564 36,000  Level Gander Center
Tue 01:17:27 PM 56.7167 -61.4667 213° Southwest 460 529 36,000  Level Gander Center
Tue 01:18:27 PM 56.6000 -61.5833 209° Southwest 470 541 36,000  Level Gander Center
Tue 01:19:27 PM 56.4833 -61.7000 209° Southwest 470 541 36,000  Level Gander Center
Tue 01:20:27 PM 56.3667 -61.8167 209° Southwest 470 541 36,000  Level Gander Center
Tue 01:21:27 PM 56.2500 -61.9500 212° Southwest 480 552 36,000  Level Gander Center
Tue 01:22:27 PM 56.1333 -62.0333 202° Southwest 480 552 36,000  Level Gander Center
Tue 01:23:27 PM 56.0167 -62.1167 202° Southwest 480 552 36,000  Level Gander Center
Tue 01:24:27 PM 55.9000 -62.2333 209° Southwest 480 552 36,000  Level Gander Center
Tue 01:25:27 PM 55.7667 -62.3167 199° South 480 552 36,000  Level Gander Center
Tue 01:26:27 PM 55.6500 -62.4000 202° Southwest 480 552 36,000  Level Gander Center
Tue 01:27:27 PM 55.5333 -62.5167 210° Southwest 480 552 36,000  Level Gander Center
Tue 01:28:27 PM 55.4167 -62.6000 202° Southwest 470 541 36,000  Level Gander Center
Tue 01:29:27 PM 55.2833 -62.7167 206° Southwest 470 541 36,000  Level Gander Center
Tue 01:30:27 PM 55.1500 -62.8000 200° South 480 552 36,000  Level Gander Center
Tue 01:31:27 PM 55.0333 -62.8833 202° Southwest 480 552 36,000  Level Gander Center
Tue 01:32:27 PM 54.9167 -63.0000 210° Southwest 480 552 36,000  Level Gander Center
Tue 01:33:27 PM 54.8000 -63.0833 202° Southwest 480 552 36,000  Level Gander Center
Tue 01:34:27 PM 54.6667 -63.1667 200° South 480 552 36,000  Level Gander Center
Tue 01:35:27 PM 54.5500 -63.2667 206° Southwest 480 552 36,000  Level Gander Center
Tue 01:36:27 PM 54.4333 -63.3500 203° Southwest 480 552 36,000  Level Gander Center
Tue 01:37:27 PM 54.3167 -63.4333 203° Southwest 480 552 36,000  Level Gander Center
Tue 01:38:27 PM 54.1833 -63.5333 204° Southwest 490 564 36,000  Level Gander Center
Tue 01:39:27 PM 54.0667 -63.6167 203° Southwest 490 564 36,000  Level Gander Center
Tue 01:40:27 PM 53.9167 -63.7167 201° Southwest 490 564 36,000  Level Gander Center
Tue 01:41:27 PM 53.8000 -63.8000 203° Southwest 480 552 36,000  Level Gander Center
Tue 01:42:27 PM 53.6833 -63.9000 207° Southwest 480 552 36,000  Level Gander Center
Tue 01:43:27 PM 53.5667 -63.9833 203° Southwest 480 552 36,000  Level Gander Center
Tue 01:44:27 PM 53.4500 -64.0667 203° Southwest 480 552 36,000  Level Gander Center
Tue 01:45:27 PM 53.3167 -64.1667 204° Southwest 480 552 36,000  Level Gander Center
Tue 01:46:27 PM 53.2000 -64.2333 199° South 480 552 36,000  Level Gander Center
Tue 01:47:27 PM 53.0667 -64.3167 201° Southwest 480 552 36,000  Level Gander Center
Tue 01:48:27 PM 52.9500 -64.4167 207° Southwest 480 552 36,000  Level Gander Center
Tue 01:49:27 PM 52.8167 -64.5000 201° Southwest 490 564 36,000  Level Gander Center
Tue 01:50:27 PM 52.7000 -64.6000 207° Southwest 490 564 36,000  Level Gander Center
Tue 01:51:27 PM 52.5667 -64.6667 197° South 500 575 36,000  Level Gander Center
Tue 01:52:27 PM 52.4500 -64.7667 208° Southwest 490 564 36,000  Level Gander Center
Tue 01:53:27 PM 52.3000 -64.8333 195° South 500 575 36,000  Level Gander Center
Tue 01:54:27 PM 52.1667 -64.9333 205° Southwest 510 587 36,000  Level Gander Center
Tue 01:55:27 PM 52.0500 -65.0000 199° South 510 587 36,000  Level Gander Center
Tue 01:56:27 PM 51.9167 -65.1000 205° Southwest 510 587 36,000  Level Gander Center
Tue 01:57:27 PM 51.7833 -65.2000 205° Southwest 520 598 36,000  Level Gander Center
Tue 01:58:27 PM 51.6500 -65.2667 197° South 520 598 36,000  Level Gander Center
Tue 01:59:27 PM 51.5167 -65.3667 205° Southwest 520 598 36,000  Level Gander Center
Tue 02:00:27 PM 51.3833 -65.4333 197° South 520 598 36,000  Level Gander Center
Tue 02:01:27 PM 51.2500 -65.5333 205° Southwest 520 598 36,000  Level Gander Center
Tue 02:02:27 PM 51.1167 -65.6333 205° Southwest 520 598 36,000  Level Gander Center
Tue 02:03:27 PM 50.9667 -65.7000 196° South 520 598 36,000  Level Gander Center
Tue 02:04:27 PM 50.8333 -65.7833 202° Southwest 520 598 36,000  Level Gander Center
Tue 02:05:27 PM 50.7167 -65.8500 200° South 520 598 36,000  Level Gander Center
Tue 02:06:27 PM 50.5833 -65.9500 205° Southwest 520 598 36,000  Level Gander Center
Tue 02:07:27 PM 50.4333 -66.0333 199° South 510 587 36,000  Level Gander Center
Tue 02:08:27 PM 50.3000 -66.1000 198° South 510 587 36,000  Level Gander Center
Tue 02:09:27 PM 50.1833 -66.2000 209° Southwest 510 587 36,000  Level Gander Center
Tue 02:10:27 PM 50.0500 -66.2500 194° South 520 598 36,000  Level Gander Center
Tue 02:11:27 PM 49.9000 -66.3500 203° Southwest 520 598 36,000  Level Gander Center
Tue 02:12:27 PM 49.7667 -66.4333 202° Southwest 510 587 36,000  Level Gander Center
Tue 02:13:27 PM 49.6333 -66.5000 198° South 520 598 36,000  Level Gander Center
Tue 02:14:27 PM 49.5000 -66.5833 202° Southwest 520 598 36,000  Level Gander Center
Tue 02:15:27 PM 49.3500 -66.6667 200° South 520 598 36,000  Level Gander Center
Tue 02:16:27 PM 49.2333 -66.7333 200° South 520 598 36,000  Level Gander Center
Tue 02:17:27 PM 49.1000 -66.8167 202° Southwest 520 598 36,000  Level Gander Center
Tue 02:18:27 PM 48.9667 -66.8833 198° South 520 598 36,000  Level Gander Center
Tue 02:19:27 PM 48.8333 -66.9667 202° Southwest 510 587 36,000  Level Gander Center
Tue 02:25:31 PM 48.0400 -67.4200 202° Southwest 512 589 36,000  Level FlightAware ADS-B
Tue 02:26:20 PM 47.9280 -67.4810 200° South 512 589 36,000  Level FlightAware ADS-B
Tue 02:26:54 PM 47.8490 -67.5240 200° South 513 590 36,000  Level FlightAware ADS-B
Tue 02:27:52 PM 47.7980 -67.5520 200° South 513 590 36,000  Level FlightAware ADS-B
Tue 02:28:28 PM 47.7300 -67.5890 200° South 513 590 36,000  Level FlightAware ADS-B
Tue 02:29:04 PM 47.6620 -67.6260 200° South 513 590 36,000  Level FlightAware ADS-B
Tue 02:29:44 PM 47.8490 -67.5240 20° North 510 587 36,000  Level FlightAware ADS-B
Tue 02:30:19 PM 47.8490 -67.5240 20° North 512 589 36,000  Level FlightAware ADS-B
Tue 02:31:17 PM 47.2670 -67.8350 200° South 513 590 36,000  Level FlightAware ADS-B
Tue 02:32:10 PM 47.1570 -67.8930 200° South 514 592 36,000  Level FlightAware ADS-B
Tue 02:32:46 PM 47.0880 -67.9280 199° South 514 592 36,000  Level FlightAware ADS-B
Tue 02:33:19 PM 47.2070 -67.8680 19° North 36,000  Level FlightAware ADS-B
Tue 02:33:39 PM 46.9500 -68.0030 200° South 510 587 36,000  Level FlightAware ADS-B
Tue 02:34:19 PM 46.8740 -68.0410 199° South 510 587 36,000  Level FlightAware ADS-B
Tue 02:34:56 PM 46.8040 -68.0770 199° South 510 587 36,000  Level FlightAware ADS-B
Tue 02:35:29 PM 46.7020 -68.1230 197° South 511 588 36,000  Level FlightAware ADS-B
Tue 02:36:07 PM 46.6140 -68.1610 197° South 510 587 36,000  Level FlightAware ADS-B
Tue 02:36:47 PM 46.5160 -68.2020 196° South 509 586 36,000  Level FlightAware ADS-B
Tue 02:37:22 PM 46.4410 -68.2330 196° South 508 585 36,000  Level FlightAware ADS-B
Tue 02:37:57 PM 46.3590 -68.2670 196° South 509 586 36,000  Level FlightAware ADS-B
Tue 02:38:32 PM 46.2800 -68.3000 196° South 509 586 36,000  Level FlightAware ADS-B
Tue 02:39:12 PM 46.1910 -68.3360 196° South 510 587 36,000  Level FlightAware ADS-B
Tue 02:39:42 PM 46.1220 -68.3640 196° South 510 587 36,000  Level FlightAware ADS-B
Tue 02:40:22 PM 46.0320 -68.4010 196° South 509 586 36,000  Level FlightAware ADS-B
Tue 02:41:02 PM 45.9420 -68.4370 196° South 508 585 36,000  Level FlightAware ADS-B
Tue 02:41:42 PM 45.8520 -68.4740 196° South 507 583 36,000  Level FlightAware ADS-B
Tue 02:42:12 PM 45.7870 -68.5000 196° South 508 585 36,000  Level FlightAware ADS-B
Tue 02:42:52 PM 45.6980 -68.5350 195° South 505 581 36,000  Level FlightAware ADS-B
Tue 02:43:22 PM 45.6280 -68.5640 196° South 500 575 36,000  Level FlightAware ADS-B
Tue 02:43:57 PM 45.5500 -68.5950 196° South 495 570 36,000  Level FlightAware ADS-B
Tue 02:44:32 PM 45.4720 -68.6260 196° South 489 563 36,000  Level FlightAware ADS-B
Tue 02:45:07 PM 45.3970 -68.6560 196° South 493 567 36,000  Level FlightAware ADS-B
Tue 02:45:47 PM 45.3090 -68.6910 196° South 491 565 36,000  Level FlightAware ADS-B
Tue 02:46:17 PM 45.2430 -68.7170 196° South 486 559 36,000  Level FlightAware ADS-B
Tue 02:46:57 PM 45.1580 -68.7500 195° South 490 564 36,000  Level FlightAware ADS-B
Tue 02:47:27 PM 45.0940 -68.7750 195° South 485 558 36,000  Level FlightAware ADS-B
Tue 02:48:02 PM 45.0170 -68.8060 196° South 485 558 36,000  Level FlightAware ADS-B
Tue 02:48:42 PM 44.9380 -68.8370 196° South 483 556 36,000  Level FlightAware ADS-B
Tue 02:49:12 PM 44.8670 -68.8650 196° South 476 548 36,000  Level FlightAware ADS-B
Tue 02:49:52 PM 44.7920 -68.9060 201° Southwest 466 536 36,000  Level FlightAware ADS-B
Tue 02:50:35 PM 44.7020 -68.9690 206° Southwest 465 535 36,000  Level FlightAware ADS-B
Tue 02:51:06 PM 44.6460 -69.0080 206° Southwest 466 536 36,000  Level FlightAware ADS-B
Tue 02:51:42 PM 44.5730 -69.0570 206° Southwest 466 536 36,000  Level FlightAware ADS-B
Tue 02:52:19 PM 44.5020 -69.1060 206° Southwest 466 536 36,000  Level FlightAware ADS-B
Tue 02:52:51 PM 44.4410 -69.1470 206° Southwest 468 539 36,000  Level FlightAware ADS-B
Tue 02:53:28 PM 44.3690 -69.1950 205° Southwest 467 537 36,000  Level FlightAware ADS-B
Tue 02:54:02 PM 44.3060 -69.2380 206° Southwest 465 535 36,000  Level FlightAware ADS-B
Tue 02:54:37 PM 44.2350 -69.2850 205° Southwest 468 539 36,000  Level FlightAware ADS-B
Tue 02:55:13 PM 44.1660 -69.3320 206° Southwest 470 541 36,000  Level FlightAware ADS-B
Tue 02:55:51 PM 44.0900 -69.3820 205° Southwest 470 541 36,000  Level FlightAware ADS-B
Tue 02:56:15 PM 44.0440 -69.4120 205° Southwest 472 543 36,000  Level FlightAware ADS-B
Tue 02:56:51 PM 43.9710 -69.4610 206° Southwest 466 536 36,000  Level FlightAware ADS-B
Tue 02:57:31 PM 43.9000 -69.5090 206° Southwest 463 533 36,000  Level FlightAware ADS-B
Tue 02:58:07 PM 43.8230 -69.5590 205° Southwest 457 526 36,000  Level FlightAware ADS-B
Tue 02:58:41 PM 43.7600 -69.6010 206° Southwest 456 525 36,000  Level FlightAware ADS-B
Tue 02:59:19 PM 43.6870 -69.6480 205° Southwest 455 524 36,000  Level FlightAware ADS-B
Tue 02:59:53 PM 43.6240 -69.6900 206° Southwest 454 522 36,000  Level FlightAware ADS-B
Tue 03:00:29 PM 43.5560 -69.7340 205° Southwest 450 518 36,000  Level FlightAware ADS-B
Tue 03:01:05 PM 43.4870 -69.7790 205° Southwest 449 517 36,000  Level FlightAware ADS-B
Tue 03:01:49 PM 43.4040 -69.8210 200° South 449 517 36,000  Level FlightAware ADS-B
Tue 03:02:30 PM 43.3160 -69.8470 192° South 461 531 36,000  Level FlightAware ADS-B
Tue 03:03:02 PM 43.2490 -69.8570 186° South 461 531 36,000  Level FlightAware ADS-B
Tue 03:03:34 PM 43.1790 -69.8700 188° South 461 531 36,000  Level FlightAware ADS-B
Tue 03:04:04 PM 43.1190 -69.8790 186° South 464 534 36,000  Level FlightAware ADS-B
Tue 03:04:41 PM 43.0390 -69.8910 186° South 455 524 36,000  Level FlightAware ADS-B
Tue 03:05:15 PM 42.9690 -69.9010 186° South 453 521 36,000  Level FlightAware ADS-B
Tue 03:05:53 PM 42.8890 -69.9130 186° South 450 518 36,000  Level FlightAware ADS-B
Tue 03:06:25 PM 42.8230 -69.9220 186° South 449 517 36,000  Level FlightAware ADS-B
Tue 03:06:57 PM 42.7570 -69.9320 186° South 448 516 36,000  Level FlightAware ADS-B
Tue 03:07:37 PM 42.6720 -69.9440 186° South 447 514 36,000  Level FlightAware ADS-B
Tue 03:08:09 PM 42.6080 -69.9530 186° South 447 514 36,000  Level FlightAware ADS-B
Tue 03:08:47 PM 42.5290 -69.9650 186° South 447 514 36,000  Level FlightAware ADS-B
Tue 03:09:25 PM 42.4530 -69.9760 186° South 440 506 36,000  Level FlightAware ADS-B
Tue 03:10:05 PM 42.3700 -69.9870 186° South 440 506 36,000  Level FlightAware ADS-B
Tue 03:10:30 PM 42.3200 -69.9950 187° South 440 506 36,000  Level FlightAware ADS-B
Tue 03:11:15 PM 42.2250 -70.0080 186° South 440 506 36,000  Level FlightAware ADS-B
Tue 03:11:45 PM 42.1660 -70.0210 189° South 442 509 36,000  Level FlightAware ADS-B
Tue 03:12:21 PM 42.0960 -70.0480 196° South 428 493 36,000  Level FlightAware ADS-B
Tue 03:13:00 PM 42.0270 -70.0900 204° Southwest 422 486 36,000  Level FlightAware ADS-B
Tue 03:13:25 PM 41.9850 -70.1230 210° Southwest 425 489 36,000  Level FlightAware ADS-B
Tue 03:14:15 PM 41.9070 -70.2050 218° Southwest 418 481 36,000  Level FlightAware ADS-B
Tue 03:14:45 PM 41.8710 -70.2530 225° Southwest 409 471 36,000  Level FlightAware ADS-B
Tue 03:15:25 PM 41.8140 -70.3370 228° Southwest 410 472 36,000  Level FlightAware ADS-B
Tue 03:16:05 PM 41.7630 -70.4090 226° Southwest 409 471 36,000  Level FlightAware ADS-B
Tue 03:16:50 PM 41.7050 -70.4950 228° Southwest 410 472 36,000  Level FlightAware ADS-B
Tue 03:17:20 PM 41.6630 -70.5550 227° Southwest 410 472 36,000  Level FlightAware ADS-B
Tue 03:17:56 PM 41.6170 -70.6210 227° Southwest 410 472 36,000  Level FlightAware ADS-B
Tue 03:18:36 PM 41.5740 -70.6850 228° Southwest 410 472 36,000  Level FlightAware ADS-B
Tue 03:19:06 PM 41.5280 -70.7510 227° Southwest 412 474 36,000  Level FlightAware ADS-B
Tue 03:19:41 PM 41.4810 -70.8180 227° Southwest 412 474 36,000  Level FlightAware ADS-B
Tue 03:20:21 PM 41.4290 -70.8930 227° Southwest 413 475 36,000  Level FlightAware ADS-B
Tue 03:20:56 PM 41.3820 -70.9600 227° Southwest 412 474 36,000  Level FlightAware ADS-B
Tue 03:21:31 PM 41.3390 -71.0210 227° Southwest 413 475 36,000  Level FlightAware ADS-B
Tue 03:22:06 PM 41.2920 -71.0910 228° Southwest 416 479 36,000  Level FlightAware ADS-B
Tue 03:22:46 PM 41.2480 -71.1780 236° Southwest 405 466 36,000  Level FlightAware ADS-B
Tue 03:23:16 PM 41.2250 -71.2440 245° Southwest 402 463 36,000  Level FlightAware ADS-B
Tue 03:23:51 PM 41.2020 -71.3280 250° West 402 463 36,000  Level FlightAware ADS-B
Tue 03:24:32 PM 41.1750 -71.4250 250° West 407 468 36,000  Level FlightAware ADS-B
Tue 03:25:05 PM 41.1560 -71.4900 249° West 407 468 36,000  Level FlightAware ADS-B
Tue 03:25:36 PM 41.1350 -71.5650 250° West 410 472 36,000  Level FlightAware ADS-B
Tue 03:26:14 PM 41.1060 -71.6650 249° West 409 471 36,000  Level FlightAware ADS-B
Tue 03:26:53 PM 41.0720 -71.7390 239° Southwest 414 476 36,000  Level FlightAware ADS-B
Tue 03:27:25 PM 41.0180 -71.8040 222° Southwest 418 481 36,000  Level FlightAware ADS-B
Tue 03:28:01 PM 40.9720 -71.8690 227° Southwest 417 480 36,000  Level FlightAware ADS-B
Tue 03:28:23 PM 40.9419 -71.9124 227° Southwest 417 480 36,000  Level FlightAware ADS-B
Tue 03:29:00 PM 40.8933 -71.9812 227° Southwest 417 480 36,000  Level FlightAware ADS-B
Tue 03:29:32 PM 40.8530 -72.0384 227° Southwest 417 480 36,000  Level FlightAware ADS-B
Tue 03:30:11 PM 40.8010 -72.1117 227° Southwest 415 478 36,000  Level FlightAware ADS-B
Tue 03:30:49 PM 40.7520 -72.1800 227° Southwest 412 474 36,000  Level FlightAware ADS-B
Tue 03:31:19 PM 40.7128 -72.2363 227° Southwest 411 473 36,000  Level FlightAware ADS-B
Tue 03:32:04 PM 40.6543 -72.3187 227° Southwest 410 472 36,000  Level FlightAware ADS-B
Tue 03:33:09 PM 40.5730 -72.4330 227° Southwest 409 471 36,000  Level FlightAware ADS-B
Tue 03:33:33 PM 40.5393 -72.4802 227° Southwest 409 471 36,000  Level FlightAware ADS-B
Tue 03:34:20 PM 40.4790 -72.5650 227° Southwest 411 473 36,000  Level FlightAware ADS-B
Tue 03:34:52 PM 40.4380 -72.6220 227° Southwest 411 473 36,000  Level FlightAware ADS-B
Tue 03:35:12 PM 40.4097 -72.6611 226° Southwest 411 473 36,000  Level FlightAware ADS-B
Tue 03:35:53 PM 40.3567 -72.7347 227° Southwest 411 473 36,000  Level FlightAware ADS-B
Tue 03:36:26 PM 40.3136 -72.7943 227° Southwest 407 468 36,000  Level FlightAware ADS-B
Tue 03:37:01 PM 40.2690 -72.8560 227° Southwest 406 467 36,000  Level FlightAware ADS-B
Tue 03:37:37 PM 40.2226 -72.9201 227° Southwest 406 467 36,000  Level FlightAware ADS-B
Tue 03:38:24 PM 40.1623 -73.0032 226° Southwest 407 468 36,000  Level FlightAware ADS-B
Tue 03:38:55 PM 40.1220 -73.0580 226° Southwest 408 470 36,000  Level FlightAware ADS-B
Tue 03:39:09 PM 40.1035 -73.0839 227° Southwest 408 470 36,000  Level FlightAware ADS-B
Tue 03:39:56 PM 40.0416 -73.1687 226° Southwest 411 473 36,000  Level FlightAware ADS-B
Tue 03:40:27 PM 40.0010 -73.2242 226° Southwest 411 473 36,000  Level FlightAware ADS-B
Tue 03:41:09 PM 39.9479 -73.2967 226° Southwest 409 471 36,000  Level FlightAware ADS-B
Tue 03:41:42 PM 39.9036 -73.3570 226° Southwest 407 468 36,000  Level FlightAware ADS-B
Tue 03:42:15 PM 39.8607 -73.4152 226° Southwest 405 466 36,000  Level FlightAware ADS-B
Tue 03:42:52 PM 39.8125 -73.4805 226° Southwest 403 464 36,000  Level FlightAware ADS-B
Tue 03:43:32 PM 39.7615 -73.5495 226° Southwest 401 461 36,000  Level FlightAware ADS-B
Tue 03:44:03 PM 39.7213 -73.6037 226° Southwest 400 460 36,000  Level FlightAware ADS-B
Tue 03:44:42 PM 39.6719 -73.6703 226° Southwest 400 460 36,000  Level FlightAware ADS-B
Tue 03:45:13 PM 39.6324 -73.7234 226° Southwest 398 458 36,000  Level FlightAware ADS-B
Tue 03:45:46 PM 39.5902 -73.7800 226° Southwest 396 456 36,000  Level FlightAware ADS-B
Tue 03:46:16 PM 39.5517 -73.8315 226° Southwest 395 455 36,000  Level FlightAware ADS-B
Tue 03:46:46 PM 39.5136 -73.8824 226° Southwest 393 452 36,000  Level FlightAware ADS-B
Tue 03:47:25 PM 39.4647 -73.9476 226° Southwest 391 450 36,000  Level FlightAware ADS-B
Tue 03:47:56 PM 39.4261 -73.9991 226° Southwest 391 450 36,000  Level FlightAware ADS-B
Tue 03:48:15 PM 39.4006 -74.0303 223° Southwest 393 452 36,000  Level FlightAware ADS-B
Tue 03:48:47 PM 39.3554 -74.0789 220° Southwest 394 453 36,000  Level FlightAware ADS-B
Tue 03:49:21 PM 39.3083 -74.1307 220° Southwest 395 455 36,000  Level FlightAware ADS-B
Tue 03:50:11 PM 39.2395 -74.2060 220° Southwest 395 455 36,000  Level FlightAware ADS-B
Tue 03:50:41 PM 39.1976 -74.2515 220° Southwest 390 449 36,000  Level FlightAware ADS-B
Tue 03:51:11 PM 39.1560 -74.2966 220° Southwest 388 447 36,000  Level FlightAware ADS-B
Tue 03:51:42 PM 39.1137 -74.3425 220° Southwest 387 445 36,000  Level FlightAware ADS-B
Tue 03:52:15 PM 39.0693 -74.3904 220° Southwest 387 445 36,000  Level FlightAware ADS-B
Tue 03:53:08 PM 38.9961 -74.4695 220° Southwest 393 452 36,000  Level FlightAware ADS-B
Tue 03:53:39 PM 38.9532 -74.5156 220° Southwest 395 455 36,000  Level FlightAware ADS-B
Tue 03:54:09 PM 38.9108 -74.5612 220° Southwest 395 455 36,000  Level FlightAware ADS-B
Tue 03:54:43 PM 38.8633 -74.6122 220° Southwest 396 456 36,000  Level FlightAware ADS-B
Tue 03:55:25 PM 38.8047 -74.6748 220° Southwest 396 456 36,000  Level FlightAware ADS-B
Tue 03:55:56 PM 38.7598 -74.7227 220° Southwest 398 458 36,000  Level FlightAware ADS-B
Tue 03:56:26 PM 38.7170 -74.7685 220° Southwest 398 458 36,000  Level FlightAware ADS-B
Tue 03:57:00 PM 38.6770 -74.8110 220° Southwest 399 459 36,000  Level FlightAware ADS-B
Tue 03:57:23 PM 38.6375 -74.8531 220° Southwest 399 459 36,000  Level FlightAware ADS-B
Tue 03:57:54 PM 38.5923 -74.9011 220° Southwest 401 461 36,000  Level FlightAware ADS-B
Tue 03:58:47 PM 38.5200 -74.9770 219° Southwest 400 460 36,000  Level FlightAware ADS-B
Tue 03:59:22 PM 38.4730 -75.0270 220° Southwest 399 459 36,000  Level FlightAware ADS-B
Tue 04:00:00 PM 38.4180 -75.0860 220° Southwest 399 459 36,000  Level FlightAware ADS-B
Tue 04:00:31 PM 38.3690 -75.1371 219° Southwest 401 461 36,000  Level FlightAware ADS-B
Tue 04:01:08 PM 38.3167 -75.1921 220° Southwest 403 464 36,000  Level FlightAware ADS-B
Tue 04:01:52 PM 38.2500 -75.2490 214° Southwest 403 464 36,000  Level FlightAware ADS-B
Tue 04:02:23 PM 38.2010 -75.2840 209° Southwest 409 471 36,000  Level FlightAware ADS-B
Tue 04:02:58 PM 38.1440 -75.3240 209° Southwest 407 468 36,000  Level FlightAware ADS-B
Tue 04:03:33 PM 38.0850 -75.3660 209° Southwest 405 466 36,000  Level FlightAware ADS-B
Tue 04:04:06 PM 38.0430 -75.3960 209° Southwest 404 465 36,000  Level FlightAware ADS-B
Tue 04:04:29 PM 37.9896 -75.4334 209° Southwest 404 465 36,000  Level FlightAware ADS-B
Tue 04:05:21 PM 37.9130 -75.4880 209° Southwest 404 465 36,000  Level FlightAware ADS-B
Tue 04:05:51 PM 37.8566 -75.5274 209° Southwest 404 465 36,000  Level FlightAware ADS-B
Tue 04:06:24 PM 37.8025 -75.5655 209° Southwest 405 466 36,000  Level FlightAware ADS-B
Tue 04:06:54 PM 37.7547 -75.5991 209° Southwest 407 468 36,000  Level FlightAware ADS-B
Tue 04:07:26 PM 37.7028 -75.6357 209° Southwest 408 470 36,000  Level FlightAware ADS-B
Tue 04:08:01 PM 37.6419 -75.6784 209° Southwest 410 472 36,000  Level FlightAware ADS-B
Tue 04:08:34 PM 37.5885 -75.7157 209° Southwest 411 473 36,000  Level FlightAware ADS-B
Tue 04:09:33 PM 37.5060 -75.7740 209° Southwest 404 465 36,000  Level FlightAware ADS-B
Tue 04:10:08 PM 37.4390 -75.8200 209° Southwest 406 467 36,000  Level FlightAware ADS-B
Tue 04:10:37 PM 37.3910 -75.8530 209° Southwest 406 467 36,000  Level FlightAware ADS-B
Tue 04:11:23 PM 37.3090 -75.9110 209° Southwest 407 468 36,000  Level FlightAware ADS-B
Tue 04:12:03 PM 37.2390 -75.9590 209° Southwest 414 476 36,000  Level FlightAware ADS-B
Tue 04:12:47 PM 37.1640 -76.0100 208° Southwest 415 478 36,000  Level FlightAware ADS-B
Tue 04:13:25 PM 37.1060 -76.0510 209° Southwest 408 470 36,000  Level FlightAware ADS-B
Tue 04:14:00 PM 37.0550 -76.0860 209° Southwest 416 479 36,000  Level FlightAware ADS-B
Tue 04:14:36 PM 36.9820 -76.1360 209° Southwest 416 479 36,000  Level FlightAware ADS-B
Tue 04:15:18 PM 36.9180 -76.1790 208° Southwest 416 479 36,000  Level FlightAware ADS-B
Tue 04:15:29 PM 36.8908 -76.1986 210° Southwest 419 482 36,000  Level FlightAware ADS-B
Tue 04:16:05 PM 36.8294 -76.2406 209° Southwest 420 483 36,000  Level FlightAware ADS-B
Tue 04:16:35 PM 36.7840 -76.2720 209° Southwest 420 483 36,000  Level FlightAware ADS-B
Tue 04:17:11 PM 36.7200 -76.3150 208° Southwest 420 483 36,000  Level FlightAware ADS-B
Tue 04:17:54 PM 36.6480 -76.3640 209° Southwest 368 423 36,000  Level FlightAware ADS-B
Tue 04:18:29 PM 36.5870 -76.4060 209° Southwest 422 486 36,000  Level FlightAware ADS-B
Tue 04:19:09 PM 36.5190 -76.4520 209° Southwest 422 486 36,000  Level FlightAware ADS-B
Tue 04:19:39 PM 36.4690 -76.4860 209° Southwest 423 487 36,000  Level FlightAware ADS-B
Tue 04:20:14 PM 36.4060 -76.5280 208° Southwest 422 486 36,000  Level FlightAware ADS-B
Tue 04:20:49 PM 36.3460 -76.5690 209° Southwest 422 486 36,000  Level FlightAware ADS-B
Tue 04:21:25 PM 36.2870 -76.6090 209° Southwest 422 486 36,000  Level FlightAware ADS-B
Tue 04:22:00 PM 36.2270 -76.6490 208° Southwest 422 486 36,000  Level FlightAware ADS-B
Tue 04:22:39 PM 36.1570 -76.6950 208° Southwest 416 479 36,000  Level FlightAware ADS-B
Tue 04:23:05 PM 36.1120 -76.7150 200° South 422 486 36,000  Level FlightAware ADS-B
Tue 04:23:44 PM 36.0350 -76.7480 199° South 423 487 36,000  Level FlightAware ADS-B
Tue 04:24:34 PM 35.9490 -76.7850 199° South 424 488 36,000  Level FlightAware ADS-B
Tue 04:25:09 PM 35.8770 -76.8160 199° South 426 490 36,000  Level FlightAware ADS-B
Tue 04:25:47 PM 35.8170 -76.8410 199° South 426 490 36,000  Level FlightAware ADS-B
Tue 04:26:23 PM 35.7600 -76.8650 199° South 426 490 36,000  Level FlightAware ADS-B
Tue 04:26:58 PM 35.7040 -76.8890 199° South 426 490 36,000  Level FlightAware ADS-B
Tue 04:27:35 PM 35.6460 -76.9140 199° South 426 490 36,000  Level FlightAware ADS-B
Tue 04:28:11 PM 35.5890 -76.9380 199° South 426 490 36,000  Level FlightAware ADS-B
Tue 04:28:47 PM 35.5320 -76.9620 199° South 426 490 36,000  Level FlightAware ADS-B
Tue 04:29:23 PM 35.4750 -76.9860 199° South 426 490 36,000  Level FlightAware ADS-B
Tue 04:29:59 PM 35.4180 -77.0100 199° South 426 490 36,000  Level FlightAware ADS-B
Tue 04:30:36 PM 35.3590 -77.0350 199° South 426 490 36,000  Level FlightAware ADS-B
Tue 04:31:12 PM 35.3020 -77.0590 199° South 426 490 36,000  Level FlightAware ADS-B
Tue 04:31:48 PM 35.2450 -77.0830 199° South 426 490 36,000  Level FlightAware ADS-B
Tue 04:32:24 PM 35.1880 -77.1070 199° South 426 490 36,000  Level FlightAware ADS-B
Tue 04:32:58 PM 35.1340 -77.1300 199° South 426 490 36,000  Level FlightAware ADS-B
Tue 04:33:34 PM 35.0770 -77.1540 199° South 426 490 36,000  Level FlightAware ADS-B
Tue 04:34:10 PM 35.0200 -77.1780 199° South 426 490 36,000  Level FlightAware ADS-B
Tue 04:34:46 PM 34.9630 -77.2020 199° South 426 490 36,000  Level FlightAware ADS-B
Tue 04:36:06 PM 34.5817 -77.0981 199° South 433 498 36,000  Level Washington Center
Tue 04:42:12 PM 33.8820 -77.4300 199° South 437 503 36,000  Level FlightAware ADS-B
Tue 04:42:49 PM 33.8200 -77.4580 201° Southwest 437 503 36,000  Level FlightAware ADS-B
Tue 04:43:22 PM 33.7500 -77.4920 202° Southwest 438 504 36,000  Level FlightAware ADS-B
Tue 04:43:57 PM 33.6800 -77.5250 201° Southwest 439 505 36,000  Level FlightAware ADS-B
Tue 04:44:50 PM 33.5930 -77.5650 201° Southwest 440 506 36,000  Level FlightAware ADS-B
Tue 04:45:26 PM 33.5350 -77.5920 201° Southwest 440 506 36,000  Level FlightAware ADS-B
Tue 04:46:02 PM 33.4770 -77.6190 201° Southwest 440 506 36,000  Level FlightAware ADS-B
Tue 04:46:38 PM 33.4180 -77.6460 201° Southwest 440 506 36,000  Level FlightAware ADS-B
Tue 04:47:14 PM 33.3600 -77.6720 201° Southwest 440 506 36,000  Level FlightAware ADS-B
Tue 04:47:50 PM 33.3020 -77.6990 201° Southwest 440 506 36,000  Level FlightAware ADS-B
Tue 04:48:27 PM 33.2420 -77.7260 201° Southwest 440 506 36,000  Level FlightAware ADS-B
Tue 04:49:03 PM 33.1840 -77.7530 201° Southwest 440 506 36,000  Level FlightAware ADS-B
Tue 04:49:22 PM 33.6380 -77.5440 21° North 36,000  Level FlightAware ADS-B
Tue 04:51:32 PM 33.0310 -77.8270 201° Southwest 36,000  Level FlightAware ADS-B
Tue 04:52:07 PM 32.7500 -77.9560 201° Southwest 442 509 36,000  Level FlightAware ADS-B
Tue 04:52:57 PM 32.6500 -78.0020 201° Southwest 442 509 36,000  Level FlightAware ADS-B
Tue 04:53:37 PM 32.5720 -78.0380 201° Southwest 441 507 36,000  Level FlightAware ADS-B
Tue 04:54:12 PM 32.5120 -78.0650 201° Southwest 441 507 36,000  Level FlightAware ADS-B
Tue 04:54:48 PM 32.4530 -78.0920 201° Southwest 441 507 36,000  Level FlightAware ADS-B
Tue 04:55:20 PM 32.5070 -78.0670 21° North 440 506 36,000  Level FlightAware ADS-B
Tue 04:56:07 PM 32.2880 -78.1670 201° Southwest 437 503 36,000  Level FlightAware ADS-B
Tue 04:56:45 PM 32.2280 -78.1940 201° Southwest 437 503 36,000  Level FlightAware ADS-B
Tue 04:57:32 PM 32.1290 -78.2390 201° Southwest 437 503 36,000  Level FlightAware ADS-B
Tue 04:58:22 PM 32.0460 -78.2760 201° Southwest 435 501 36,000  Level FlightAware ADS-B
Tue 04:58:58 PM 31.9890 -78.3020 201° Southwest 435 501 36,000  Level FlightAware ADS-B
Tue 04:59:34 PM 31.9310 -78.3280 201° Southwest 435 501 36,000  Level FlightAware ADS-B
Tue 05:00:10 PM 31.8740 -78.3540 201° Southwest 435 501 36,000  Level FlightAware ADS-B
Tue 05:00:46 PM 31.8160 -78.3800 201° Southwest 435 501 36,000  Level FlightAware ADS-B
Tue 05:01:20 PM 31.7620 -78.4050 201° Southwest 435 501 36,000  Level FlightAware ADS-B
Tue 05:01:56 PM 31.7040 -78.4310 201° Southwest 435 501 36,000  Level FlightAware ADS-B
Tue 05:02:33 PM 31.6450 -78.4570 201° Southwest 435 501 36,000  Level FlightAware ADS-B
Tue 05:03:11 PM 31.5850 -78.4850 202° Southwest 435 501 36,000  Level FlightAware ADS-B
Tue 05:03:45 PM 31.5300 -78.5090 200° South 435 501 36,000  Level FlightAware ADS-B
Tue 05:04:21 PM 31.4730 -78.5350 201° Southwest 435 501 36,000  Level FlightAware ADS-B
Tue 05:04:57 PM 31.4150 -78.5610 201° Southwest 435 501 36,000  Level FlightAware ADS-B
Tue 05:05:34 PM 31.3560 -78.5880 201° Southwest 435 501 36,000  Level FlightAware ADS-B
Tue 05:06:10 PM 31.2990 -78.6130 201° Southwest 435 501 36,000  Level FlightAware ADS-B
Tue 05:06:46 PM 31.2410 -78.6390 201° Southwest 435 501 36,000  Level FlightAware ADS-B
Tue 05:07:22 PM 31.1840 -78.6650 201° Southwest 435 501 36,000  Level FlightAware ADS-B
Tue 05:08:42 PM 30.8442 -78.8133 201° Southwest 445 512 36,000  Level Jacksonville Center
Tue 05:09:42 PM 30.7308 -78.8617 200° South 440 506 36,000  Level Jacksonville Center
Tue 05:11:12 PM 30.5717 -78.9317 201° Southwest 442 509 36,000  Level Miami Center
Tue 05:12:12 PM 30.4564 -78.9800 200° South 442 509 36,000  Level Miami Center
Tue 05:13:12 PM 30.3369 -79.0258 198° South 448 516 36,000  Level Miami Center
Tue 05:14:12 PM 30.2131 -79.0711 198° South 453 521 36,000  Level Miami Center
Tue 05:15:12 PM 30.1019 -79.1169 200° South 446 513 36,000  Level Miami Center
Tue 05:16:12 PM 29.9864 -79.1672 201° Southwest 446 513 36,000  Level Miami Center
Tue 05:17:12 PM 29.8689 -79.2100 198° South 446 513 36,000  Level Miami Center
Tue 05:18:12 PM 29.7514 -79.2553 198° South 446 513 36,000  Level Miami Center
Tue 05:19:12 PM 29.6361 -79.3028 200° South 446 513 36,000  Level Miami Center
Tue 05:20:12 PM 29.5144 -79.3406 195° South 448 516 36,000  Level Miami Center
Tue 05:21:12 PM 29.3989 -79.3881 200° South 448 516 36,000  Level Miami Center
Tue 05:22:12 PM 29.2853 -79.4353 200° South 448 516 36,000  Level Miami Center
Tue 05:27:20 PM 28.6670 -79.6630 200° South 36,000  Level FlightAware ADS-B
Tue 05:27:51 PM 28.6030 -79.6870 198° South 438 504 36,000  Level FlightAware ADS-B
Tue 05:28:40 PM 28.5060 -79.7230 198° South 439 505 36,000  Level FlightAware ADS-B
Tue 05:29:11 PM 28.4460 -79.7450 198° South 438 504 36,000  Level FlightAware ADS-B
Tue 05:29:50 PM 28.3690 -79.7740 198° South 438 504 36,000  Level FlightAware ADS-B
Tue 05:30:21 PM 28.3160 -79.7940 198° South 441 507 36,000  Level FlightAware ADS-B
Tue 05:30:55 PM 28.2420 -79.8220 198° South 439 505 36,000  Level FlightAware ADS-B
Tue 05:31:32 PM 28.1730 -79.8470 198° South 440 506 36,000  Level FlightAware ADS-B
Tue 05:32:10 PM 28.0980 -79.8760 199° South 442 509 36,000  Level FlightAware ADS-B
Tue 05:32:41 PM 28.0380 -79.8980 198° South 441 507 36,000  Level FlightAware ADS-B
Tue 05:33:15 PM 27.9740 -79.9220 198° South 440 506 36,000  Level FlightAware ADS-B
Tue 05:33:51 PM 27.9030 -79.9480 198° South 441 507 36,000  Level FlightAware ADS-B
Tue 05:34:25 PM 27.8350 -79.9730 198° South 442 509 36,000  Level FlightAware ADS-B
Tue 05:35:02 PM 27.7680 -79.9980 198° South 443 510 36,000  Level FlightAware ADS-B
Tue 05:35:45 PM 27.6860 -80.0280 198° South 441 507 36,000  Level FlightAware ADS-B
Tue 05:36:21 PM 27.6160 -80.0540 198° South 440 506 36,000  Level FlightAware ADS-B
Tue 05:36:55 PM 27.5460 -80.0800 198° South 441 507 36,000  Level FlightAware ADS-B
Tue 05:37:26 PM 27.4890 -80.1000 197° South 439 505 36,000  Level FlightAware ADS-B
Tue 05:38:05 PM 27.4090 -80.1300 198° South 438 504 36,000  Level FlightAware ADS-B
Tue 05:38:46 PM 27.3290 -80.1590 198° South 438 504 36,000  Level FlightAware ADS-B
Tue 05:39:20 PM 27.2620 -80.1840 198° South 437 503 36,000  Level FlightAware ADS-B
Tue 05:39:56 PM 27.1940 -80.2090 198° South 436 502 36,000  Level FlightAware ADS-B
Tue 05:40:30 PM 27.1280 -80.2330 198° South 427 491 36,000  Level FlightAware ADS-B
Tue 05:41:06 PM 27.0600 -80.2570 197° South 423 487 36,000  Level FlightAware ADS-B
Tue 05:41:40 PM 26.9960 -80.2810 198° South 422 486 36,000  Level FlightAware ADS-B
Tue 05:42:16 PM 26.9280 -80.3060 198° South 422 486 36,000  Level FlightAware ADS-B
Tue 05:42:51 PM 26.8600 -80.3300 197° South 425 489 36,000  Level FlightAware ADS-B
Tue 05:43:30 PM 26.7860 -80.3570 198° South 427 491 36,000  Level FlightAware ADS-B
Tue 05:44:00 PM 26.7290 -80.3780 198° South 436 502 36,000  Level FlightAware ADS-B
Tue 05:44:36 PM 26.6590 -80.4030 198° South 436 502 36,000  Level FlightAware ADS-B
Tue 05:45:10 PM 26.5980 -80.4250 198° South 426 490 36,000  Level FlightAware ADS-B
Tue 05:45:50 PM 26.5180 -80.4540 198° South 425 489 36,000  Level FlightAware ADS-B
Tue 05:46:20 PM 26.4610 -80.4750 198° South 424 488 36,000  Level FlightAware ADS-B
Tue 05:46:55 PM 26.3930 -80.4990 198° South 423 487 36,000  Level FlightAware ADS-B
Tue 05:47:30 PM 26.3260 -80.5230 198° South 424 488 36,000  Level FlightAware ADS-B
Tue 05:48:06 PM 26.2620 -80.5460 198° South 425 489 36,000  Level FlightAware ADS-B
Tue 05:48:40 PM 26.1940 -80.5710 198° South 425 489 36,000  Level FlightAware ADS-B
Tue 05:49:16 PM 26.1250 -80.5950 197° South 427 491 36,000  Level FlightAware ADS-B
Tue 05:49:50 PM 26.0590 -80.6190 198° South 427 491 36,000  Level FlightAware ADS-B
Tue 05:50:25 PM 25.9910 -80.6430 198° South 425 489 36,000  Level FlightAware ADS-B
Tue 05:51:00 PM 25.9260 -80.6670 198° South 426 490 36,000  Level FlightAware ADS-B
Tue 05:51:40 PM 25.8540 -80.6920 197° South 427 491 36,000  Level FlightAware ADS-B
Tue 05:52:10 PM 25.7930 -80.7140 198° South 437 503 36,000  Level FlightAware ADS-B
Tue 05:52:45 PM 25.7240 -80.7390 198° South 437 503 36,000  Level FlightAware ADS-B
Tue 05:53:25 PM 25.6470 -80.7660 198° South 427 491 36,000  Level FlightAware ADS-B
Tue 05:53:55 PM 25.5900 -80.7860 198° South 436 502 36,000  Level FlightAware ADS-B
Tue 05:54:30 PM 25.5220 -80.8100 198° South 437 503 36,000  Level FlightAware ADS-B
Tue 05:55:05 PM 25.4560 -80.8340 198° South 438 504 36,000  Level FlightAware ADS-B
Tue 05:55:45 PM 25.3770 -80.8620 198° South 438 504 36,000  Level FlightAware ADS-B
Tue 05:56:15 PM 25.3190 -80.8820 197° South 436 502 36,000  Level FlightAware ADS-B
Tue 05:56:51 PM 25.2500 -80.9070 198° South 436 502 36,000  Level FlightAware ADS-B
Tue 05:57:26 PM 25.1830 -80.9300 197° South 435 501 36,000  Level FlightAware ADS-B
Tue 05:58:01 PM 25.1240 -80.9510 198° South 436 502 36,000  Level FlightAware ADS-B
Tue 05:58:46 PM 25.0270 -80.9850 198° South 426 490 36,000  Level FlightAware ADS-B
Tue 05:59:16 PM 24.9720 -81.0040 197° South 426 490 36,000  Level FlightAware ADS-B
Tue 05:59:51 PM 24.9040 -81.0280 198° South 426 490 36,000  Level FlightAware ADS-B
Tue 06:00:31 PM 24.8290 -81.0630 203° Southwest 434 499 36,000  Level FlightAware ADS-B
Tue 06:01:06 PM 24.7700 -81.1030 212° Southwest 435 501 36,000  Level FlightAware ADS-B
Tue 06:01:41 PM 24.7150 -81.1520 219° Southwest 436 502 36,000  Level FlightAware ADS-B
Tue 06:02:21 PM 24.6610 -81.2170 228° Southwest 437 503 36,000 -320 Level FlightAware ADS-B
Tue 06:02:56 PM 24.6220 -81.2790 235° Southwest 442 509 35,600 -857 Descending FlightAware ADS-B
Tue 06:03:31 PM 24.5860 -81.3520 242° Southwest 449 517 35,000 -1,029 Descending FlightAware ADS-B
Tue 06:04:06 PM 24.5500 -81.4240 241° Southwest 452 520 34,400 -857 Descending FlightAware ADS-B
Tue 06:04:41 PM 24.5160 -81.4920 241° Southwest 450 518 34,000 -429 Descending FlightAware ADS-B
Tue 06:05:16 PM 24.4840 -81.5560 241° Southwest 449 517 33,900 -1,091 Descending FlightAware ADS-B
Tue 06:05:47 PM 24.4470 -81.6170 236° Southwest 445 512 32,800 -2,167 Descending FlightAware ADS-B
Tue 06:06:28 PM 24.3760 -81.6840 221° Southwest 440 506 31,300 -2,132 Descending FlightAware ADS-B
Tue 06:07:03 PM 24.3230 -81.7330 220° Southwest 429 494 30,100 -2,073 Descending FlightAware ADS-B
Tue 06:07:23 PM 24.2930 -81.7630 222° Southwest 425 489 29,400 -2,600 Descending FlightAware ADS-B
Tue 06:07:33 PM 24.2810 -81.7820 235° Southwest 429 494 28,800 -2,667 Descending FlightAware ADS-B
Tue 06:08:08 PM 24.2540 -81.8520 247° West 435 501 27,400 -1,920 Descending FlightAware ADS-B
Tue 06:08:48 PM 24.2270 -81.9240 248° West 419 482 26,400 -1,920 Descending FlightAware ADS-B
Tue 06:09:23 PM 24.1980 -81.9990 247° West 414 476 25,000 -1,913 Descending FlightAware ADS-B
Tue 06:09:57 PM 24.1750 -82.0600 248° West 397 457 24,200 -1,200 Descending FlightAware ADS-B
Tue 06:10:33 PM 24.1510 -82.1230 247° West 382 440 23,600 -1,395 Descending FlightAware ADS-B
Tue 06:11:23 PM 24.1170 -82.2130 248° West 367 422 22,200 -955 Descending FlightAware ADS-B
Tue 06:12:01 PM 24.0960 -82.2690 248° West 367 422 22,200  Level FlightAware ADS-B
Tue 06:12:37 PM 24.0770 -82.3220 249° West 367 422 22,200  Level FlightAware ADS-B
Tue 06:13:13 PM 24.0570 -82.3740 247° West 367 422 22,200  Level FlightAware ADS-B
Tue 06:13:50 PM 24.0370 -82.4290 248° West 367 422 22,200  Level FlightAware ADS-B
Tue 06:14:26 PM 24.0180 -82.4810 248° West 367 422 22,200  Level FlightAware ADS-B
Tue 06:15:02 PM 23.9980 -82.5340 248° West 367 422 22,200  Level FlightAware ADS-B
Tue 06:22:00 PM 23.1747 -82.4319 173° South  Level Estimated
Tue 06:23:00 PM 23.0565 -82.4174 174° South  Level Estimated
Tue 06:24:00 PM 22.9891 -82.4091 174° South  Level Estimated
Tue 06:25:00 PM 22.9891 -82.4091 51° Northeast  Level Estimated
Tue 06:26:00 PM 22.9891 -82.4091 51° Northeast  Level Estimated
Tue 06:27:00 PM 22.9891 -82.4091 51° Northeast  Level Estimated
Tue 06:28:00 PM 22.9891 -82.4091 51° Northeast  Level Estimated
Tue 06:29:00 PM 22.9891 -82.4091 51° Northeast  Level Estimated
Tue 06:30:00 PM 22.9891 -82.4091 51° Northeast  Level Estimated
Tue 06:31:00 PM 22.9891 -82.4091 51° Northeast  Level Estimated
Tue 06:32:00 PM 22.9891 -82.4091 51° Northeast  Level Estimated
Tue 06:33:00 PM 22.9891 -82.4091 51° Northeast  Level Estimated
Tue 06:34:00 PM 22.9891 -82.4091 51° Northeast  Level Estimated
Tue 06:35:00 PM 22.9891 -82.4091 51° Northeast  Level Estimated
Tue 06:36:00 PM 22.9891 -82.4091 51° Northeast  Level Estimated
Tue 06:37:00 PM 22.9891 -82.4091 51° Northeast  Level Estimated
Tue 06:38:00 PM 22.9891 -82.4091 51° Northeast  Level Estimated
Tue 06:39:00 PM 22.9891 -82.4091 51° Northeast  Level Estimated
Tue 06:40:00 PM 22.9891 -82.4091 51° Northeast  Level Estimated

Login

Don't have an account? Register now (free) for customized features, flight alerts, and more!